Observation data for Smyer on 07/01/2020      Previous  Date       Current Mesonet Observations  Soil Data  Daily Summary Page  Observations in Plain Language
KSM2 010500Z 24007KT 27/04 A2986 RMK A01 T02650040  RH  024%=      5-min Rain = 0
KSM2 010501Z 24008KT 26/04 A2986 RMK A01 T02640040  RH  024%=      5-min Rain = 0
KSM2 010502Z 24008KT 26/04 A2986 RMK A01 T02640041  RH  024%=      5-min Rain = 0
KSM2 010503Z 24008KT 26/04 A2986 RMK A01 T02630042  RH  024%=      5-min Rain = 0
KSM2 010504Z 23008KT 26/04 A2986 RMK A01 T02630042  RH  024%=      5-min Rain = 0
KSM2 010505Z 23008KT 26/04 A2986 RMK A01 T02630041  RH  024%=      5-min Rain = 0
KSM2 010506Z 23008KT 26/04 A2986 RMK A01 T02630041  RH  024%=      5-min Rain = 0
KSM2 010507Z 23008KT 26/04 A2986 RMK A01 T02640041  RH  024%=      5-min Rain = 0
KSM2 010508Z 23008KT 26/04 A2986 RMK A01 T02640042  RH  024%=      5-min Rain = 0
KSM2 010509Z 23009KT 26/04 A2986 RMK A01 T02630041  RH  024%=      5-min Rain = 0
KSM2 010510Z 23008KT 26/04 A2986 RMK A01 T02640042  RH  024%=      5-min Rain = 0
KSM2 010511Z 23009KT 26/04 A2986 RMK A01 T02630042  RH  024%=      5-min Rain = 0
KSM2 010512Z 23008KT 26/04 A2986 RMK A01 T02630042  RH  024%=      5-min Rain = 0
KSM2 010513Z 23009KT 26/04 A2986 RMK A01 T02630041  RH  024%=      5-min Rain = 0
KSM2 010514Z 24009KT 26/04 A2986 RMK A01 T02630041  RH  024%=      5-min Rain = 0
KSM2 010515Z 24009KT 26/04 A2986 RMK A01 T02640041  RH  024%=      5-min Rain = 0
KSM2 010516Z 24009KT 26/04 A2986 RMK A01 T02630041  RH  024%=      5-min Rain = 0
KSM2 010517Z 24009KT 26/04 A2986 RMK A01 T02630041  RH  024%=      5-min Rain = 0
KSM2 010518Z 23008KT 26/04 A2986 RMK A01 T02630042  RH  024%=      5-min Rain = 0
KSM2 010519Z 23008KT 26/04 A2986 RMK A01 T02620043  RH  024%=      5-min Rain = 0
KSM2 010520Z 22008KT 26/04 A2986 RMK A01 T02610044  RH  025%=      5-min Rain = 0
KSM2 010521Z 19009KT 26/04 A2987 RMK A01 T02600041  RH  024%=      5-min Rain = 0
KSM2 010522Z 18009KT 26/04 A2987 RMK A01 T02600041  RH  024%=      5-min Rain = 0
KSM2 010523Z 21009KT 26/04 A2987 RMK A01 T02580041  RH  025%=      5-min Rain = 0
KSM2 010524Z 22008KT 26/04 A2987 RMK A01 T02570040  RH  025%=      5-min Rain = 0
KSM2 010525Z 21008KT 26/04 A2987 RMK A01 T02570041  RH  025%=      5-min Rain = 0
KSM2 010526Z 20007KT 26/04 A2987 RMK A01 T02560040  RH  025%=      5-min Rain = 0
KSM2 010527Z 20006KT 26/04 A2987 RMK A01 T02570040  RH  025%=      5-min Rain = 0
KSM2 010528Z 20006KT 26/04 A2987 RMK A01 T02550042  RH  025%=      5-min Rain = 0
KSM2 010529Z 21006KT 25/04 A2987 RMK A01 T02520041  RH  025%=      5-min Rain = 0
KSM2 010530Z 21006KT 25/04 A2987 RMK A01 T02520040  RH  025%=      5-min Rain = 0
KSM2 010531Z 19007KT 25/04 A2987 RMK A01 T02520041  RH  025%=      5-min Rain = 0
KSM2 010532Z 18007KT 25/04 A2987 RMK A01 T02510041  RH  026%=      5-min Rain = 0
KSM2 010533Z 20007KT 25/04 A2987 RMK A01 T02510040  RH  026%=      5-min Rain = 0
KSM2 010534Z 22008KT 25/04 A2987 RMK A01 T02500040  RH  026%=      5-min Rain = 0
KSM2 010535Z 23008KT 25/04 A2987 RMK A01 T02500039  RH  026%=      5-min Rain = 0
KSM2 010536Z 22008KT 25/04 A2987 RMK A01 T02520040  RH  025%=      5-min Rain = 0
KSM2 010537Z 22008KT 25/04 A2987 RMK A01 T02540040  RH  025%=      5-min Rain = 0
KSM2 010538Z 20007KT 25/04 A2987 RMK A01 T02540040  RH  025%=      5-min Rain = 0
KSM2 010539Z 19006KT 26/04 A2987 RMK A01 T02550040  RH  025%=      5-min Rain = 0
KSM2 010540Z 20007KT 25/04 A2987 RMK A01 T02530042  RH  026%=      5-min Rain = 0
KSM2 010541Z 21007KT 25/04 A2987 RMK A01 T02500041  RH  026%=      5-min Rain = 0
KSM2 010542Z 21008KT 25/04 A2987 RMK A01 T02490040  RH  026%=      5-min Rain = 0
KSM2 010543Z 22007KT 25/04 A2987 RMK A01 T02490041  RH  026%=      5-min Rain = 0
KSM2 010544Z 22008KT 25/04 A2987 RMK A01 T02490041  RH  026%=      5-min Rain = 0
KSM2 010545Z 21007KT 25/04 A2987 RMK A01 T02500042  RH  026%=      5-min Rain = 0
KSM2 010546Z 21006KT 25/04 A2987 RMK A01 T02500041  RH  026%=      5-min Rain = 0
KSM2 010547Z 21007KT 25/04 A2987 RMK A01 T02510040  RH  026%=      5-min Rain = 0
KSM2 010548Z 21005KT 25/04 A2987 RMK A01 T02510041  RH  026%=      5-min Rain = 0
KSM2 010549Z 21006KT 25/04 A2987 RMK A01 T02500041  RH  026%=      5-min Rain = 0
KSM2 010550Z 21006KT 25/04 A2987 RMK A01 T02490042  RH  026%=      5-min Rain = 0
KSM2 010551Z 21006KT 25/04 A2987 RMK A01 T02470041  RH  026%=      5-min Rain = 0
KSM2 010552Z 21006KT 25/04 A2987 RMK A01 T02470042  RH  026%=      5-min Rain = 0
KSM2 010553Z 21006KT 25/04 A2987 RMK A01 T02460043  RH  027%=      5-min Rain = 0
KSM2 010554Z 21006KT 25/04 A2987 RMK A01 T02450042  RH  027%=      5-min Rain = 0
KSM2 010555Z 21008KT 25/04 A2987 RMK A01 T02460042  RH  027%=      5-min Rain = 0
KSM2 010556Z 20007KT 25/04 A2987 RMK A01 T02460041  RH  027%=      5-min Rain = 0
KSM2 010557Z 19007KT 25/04 A2987 RMK A01 T02460043  RH  027%=      5-min Rain = 0
KSM2 010558Z 19007KT 24/04 A2987 RMK A01 T02430043  RH  027%=      5-min Rain = 0
KSM2 010559Z 20007KT 24/04 A2987 RMK A01 T02410043  RH  028%=      5-min Rain = 0
KSM2 010600Z 20007KT 24/04 A2987 RMK A01 T02390044  RH  028%=      5-min Rain = 0
KSM2 010601Z 19008KT 24/05 A2987 RMK A01 T02370045  RH  029%=      5-min Rain = 0
KSM2 010602Z 20008KT 24/05 A2987 RMK A01 T02360045  RH  029%=      5-min Rain = 0
KSM2 010603Z 21008KT 24/04 A2987 RMK A01 T02370044  RH  028%=      5-min Rain = 0
KSM2 010604Z 21007KT 24/04 A2987 RMK A01 T02390044  RH  028%=      5-min Rain = 0
KSM2 010605Z 21007KT 24/05 A2987 RMK A01 T02410045  RH  028%=      5-min Rain = 0
KSM2 010606Z 21008KT 24/05 A2987 RMK A01 T02410046  RH  028%=      5-min Rain = 0
KSM2 010607Z 20008KT 24/05 A2987 RMK A01 T02410045  RH  028%=      5-min Rain = 0
KSM2 010608Z 19008KT 24/05 A2987 RMK A01 T02420046  RH  028%=      5-min Rain = 0
KSM2 010609Z 19008KT 24/05 A2987 RMK A01 T02410046  RH  028%=      5-min Rain = 0
KSM2 010610Z 20009KT 24/05 A2987 RMK A01 T02400046  RH  028%=      5-min Rain = 0
KSM2 010611Z 20007KT 24/05 A2987 RMK A01 T02390046  RH  029%=      5-min Rain = 0
KSM2 010612Z 21008KT 24/05 A2987 RMK A01 T02390045  RH  028%=      5-min Rain = 0
KSM2 010613Z 21007KT 24/05 A2987 RMK A01 T02400046  RH  028%=      5-min Rain = 0
KSM2 010614Z 21008KT 24/05 A2987 RMK A01 T02400046  RH  028%=      5-min Rain = 0
KSM2 010615Z 21008KT 24/05 A2987 RMK A01 T02410045  RH  028%=      5-min Rain = 0
KSM2 010616Z 20008KT 24/05 A2987 RMK A01 T02410046  RH  028%=      5-min Rain = 0
KSM2 010617Z 20008KT 24/05 A2987 RMK A01 T02410046  RH  028%=      5-min Rain = 0
KSM2 010618Z 19009KT 24/05 A2987 RMK A01 T02390047  RH  029%=      5-min Rain = 0
KSM2 010619Z 20008KT 24/05 A2987 RMK A01 T02360047  RH  029%=      5-min Rain = 0
KSM2 010620Z 21008KT 24/05 A2987 RMK A01 T02360045  RH  029%=      5-min Rain = 0
KSM2 010621Z 21009KT 24/05 A2987 RMK A01 T02370046  RH  029%=      5-min Rain = 0
KSM2 010622Z 21009KT 24/05 A2987 RMK A01 T02380046  RH  029%=      5-min Rain = 0
KSM2 010623Z 20008KT 24/05 A2987 RMK A01 T02390047  RH  029%=      5-min Rain = 0
KSM2 010624Z 20008KT 24/05 A2987 RMK A01 T02380047  RH  029%=      5-min Rain = 0
KSM2 010625Z 21008KT 24/05 A2987 RMK A01 T02360047  RH  029%=      5-min Rain = 0
KSM2 010626Z 21009KT 24/05 A2987 RMK A01 T02350046  RH  029%=      5-min Rain = 0
KSM2 010627Z 21008KT 24/05 A2987 RMK A01 T02360046  RH  029%=      5-min Rain = 0
KSM2 010628Z 21008KT 24/05 A2987 RMK A01 T02370046  RH  029%=      5-min Rain = 0
KSM2 010629Z 20009KT 24/05 A2987 RMK A01 T02390045  RH  028%=      5-min Rain = 0
KSM2 010630Z 20008KT 24/05 A2987 RMK A01 T02400046  RH  028%=      5-min Rain = 0
KSM2 010631Z 20008KT 24/05 A2987 RMK A01 T02390046  RH  029%=      5-min Rain = 0
KSM2 010632Z 21009KT 24/05 A2987 RMK A01 T02380046  RH  029%=      5-min Rain = 0
KSM2 010633Z 22009KT 24/05 A2987 RMK A01 T02380045  RH  028%=      5-min Rain = 0
KSM2 010634Z 21009KT 24/05 A2987 RMK A01 T02400045  RH  028%=      5-min Rain = 0
KSM2 010635Z 20009KT 24/04 A2987 RMK A01 T02400044  RH  028%=      5-min Rain = 0
KSM2 010636Z 20008KT 24/04 A2987 RMK A01 T02410044  RH  028%=      5-min Rain = 0
KSM2 010637Z 20008KT 24/05 A2987 RMK A01 T02400045  RH  028%=      5-min Rain = 0
KSM2 010638Z 21009KT 24/04 A2987 RMK A01 T02390044  RH  028%=      5-min Rain = 0
KSM2 010639Z 21009KT 24/04 A2987 RMK A01 T02390043  RH  028%=      5-min Rain = 0
KSM2 010640Z 21009KT 24/04 A2987 RMK A01 T02400043  RH  028%=      5-min Rain = 0
KSM2 010641Z 20009KT 24/04 A2987 RMK A01 T02410043  RH  028%=      5-min Rain = 0
KSM2 010642Z 21010KT 24/04 A2987 RMK A01 T02420043  RH  027%=      5-min Rain = 0
KSM2 010643Z 20009KT 24/04 A2987 RMK A01 T02420043  RH  027%=      5-min Rain = 0
KSM2 010644Z 21009KT 24/04 A2987 RMK A01 T02420043  RH  027%=      5-min Rain = 0
KSM2 010645Z 21010KT 24/04 A2987 RMK A01 T02420043  RH  028%=      5-min Rain = 0
KSM2 010646Z 21009KT 24/04 A2987 RMK A01 T02420043  RH  028%=      5-min Rain = 0
KSM2 010647Z 21008KT 24/04 A2987 RMK A01 T02410044  RH  028%=      5-min Rain = 0
KSM2 010648Z 21009KT 24/04 A2987 RMK A01 T02410044  RH  028%=      5-min Rain = 0
KSM2 010649Z 21010KT 24/04 A2987 RMK A01 T02400043  RH  028%=      5-min Rain = 0
KSM2 010650Z 21009KT 24/04 A2987 RMK A01 T02400044  RH  028%=      5-min Rain = 0
KSM2 010651Z 21010KT 24/04 A2987 RMK A01 T02400043  RH  028%=      5-min Rain = 0
KSM2 010652Z 21009KT 24/04 A2987 RMK A01 T02400044  RH  028%=      5-min Rain = 0
KSM2 010653Z 21010KT 24/04 A2987 RMK A01 T02400043  RH  028%=      5-min Rain = 0
KSM2 010654Z 20008KT 24/04 A2987 RMK A01 T02400043  RH  028%=      5-min Rain = 0
KSM2 010655Z 20007KT 24/04 A2987 RMK A01 T02390044  RH  028%=      5-min Rain = 0
KSM2 010656Z 20007KT 24/05 A2987 RMK A01 T02380045  RH  029%=      5-min Rain = 0
KSM2 010657Z 19008KT 24/05 A2987 RMK A01 T02360046  RH  029%=      5-min Rain = 0
KSM2 010658Z 18007KT 23/05 A2988 RMK A01 T02330046  RH  030%=      5-min Rain = 0
KSM2 010659Z 17008KT 23/05 A2988 RMK A01 T02320045  RH  030%=      5-min Rain = 0
KSM2 010700Z 15009KT 23/04 A2988 RMK A01 T02320044  RH  030%=      5-min Rain = 0
KSM2 010701Z 14010KT 23/04 A2988 RMK A01 T02320044  RH  029%=      5-min Rain = 0
KSM2 010702Z 15009KT 23/05 A2988 RMK A01 T02330045  RH  030%=      5-min Rain = 0
KSM2 010703Z 15009KT 23/05 A2988 RMK A01 T02330045  RH  029%=      5-min Rain = 0
KSM2 010704Z 16010KT 23/04 A2988 RMK A01 T02330044  RH  029%=      5-min Rain = 0
KSM2 010705Z 16012KT 24/05 A2988 RMK A01 T02370046  RH  029%=      5-min Rain = 0
KSM2 010706Z 16010G15KT 24/05 A2988 RMK A01 T02390045  RH  028%=      5-min Rain = 0
KSM2 010707Z 17012KT 24/05 A2988 RMK A01 T02420045  RH  028%=      5-min Rain = 0
KSM2 010708Z 17010KT 25/05 A2988 RMK A01 T02450046  RH  028%=      5-min Rain = 0
KSM2 010709Z 19009KT 25/05 A2988 RMK A01 T02470046  RH  027%=      5-min Rain = 0
KSM2 010710Z 20008G13KT 25/05 A2988 RMK A01 T02470047  RH  027%=      5-min Rain = 0
KSM2 010711Z 18015KT 25/04 A2988 RMK A01 T02480044  RH  027%=      5-min Rain = 0
KSM2 010712Z 19013KT 25/05 A2988 RMK A01 T02530045  RH  026%=      5-min Rain = 0
KSM2 010713Z 19012KT 25/05 A2988 RMK A01 T02530047  RH  026%=      5-min Rain = 0
KSM2 010714Z 19012KT 25/05 A2988 RMK A01 T02510048  RH  027%=      5-min Rain = 0
KSM2 010715Z 21009KT 25/05 A2988 RMK A01 T02490047  RH  027%=      5-min Rain = 0
KSM2 010716Z 21008KT 25/05 A2988 RMK A01 T02490048  RH  027%=      5-min Rain = 0
KSM2 010717Z 22008KT 25/05 A2988 RMK A01 T02480046  RH  027%=      5-min Rain = 0
KSM2 010718Z 22010KT 25/05 A2989 RMK A01 T02490047  RH  027%=      5-min Rain = 0
KSM2 010719Z 21010KT 25/05 A2988 RMK A01 T02500047  RH  027%=      5-min Rain = 0
KSM2 010720Z 21008KT 25/05 A2988 RMK A01 T02500049  RH  027%=      5-min Rain = 0
KSM2 010721Z 20008KT 25/05 A2988 RMK A01 T02490050  RH  028%=      5-min Rain = 0
KSM2 010722Z 19010KT 25/05 A2988 RMK A01 T02470052  RH  028%=      5-min Rain = 0
KSM2 010723Z 19011KT 25/06 A2988 RMK A01 T02460056  RH  029%=      5-min Rain = 0
KSM2 010724Z 20012KT 25/06 A2988 RMK A01 T02470060  RH  030%=      5-min Rain = 0
KSM2 010725Z 20011KT 25/06 A2988 RMK A01 T02470061  RH  030%=      5-min Rain = 0
KSM2 010726Z 20010KT 25/06 A2988 RMK A01 T02470061  RH  030%=      5-min Rain = 0
KSM2 010727Z 20011KT 25/07 A2988 RMK A01 T02470065  RH  031%=      5-min Rain = 0
KSM2 010728Z 20010KT 25/07 A2988 RMK A01 T02470068  RH  032%=      5-min Rain = 0
KSM2 010729Z 20010KT 25/07 A2988 RMK A01 T02470068  RH  032%=      5-min Rain = 0
KSM2 010730Z 20011KT 25/07 A2988 RMK A01 T02460070  RH  032%=      5-min Rain = 0
KSM2 010731Z 19011KT 25/07 A2988 RMK A01 T02450072  RH  033%=      5-min Rain = 0
KSM2 010732Z 19010KT 24/07 A2988 RMK A01 T02430074  RH  034%=      5-min Rain = 0
KSM2 010733Z 19011KT 24/08 A2988 RMK A01 T02420077  RH  035%=      5-min Rain = 0
KSM2 010734Z 19010KT 24/08 A2988 RMK A01 T02410080  RH  036%=      5-min Rain = 0
KSM2 010735Z 18010KT 24/08 A2988 RMK A01 T02410083  RH  036%=      5-min Rain = 0
KSM2 010736Z 18008KT 24/09 A2988 RMK A01 T02410085  RH  037%=      5-min Rain = 0
KSM2 010737Z 18009KT 24/09 A2988 RMK A01 T02410089  RH  038%=      5-min Rain = 0
KSM2 010738Z 17009KT 24/09 A2988 RMK A01 T02410094  RH  039%=      5-min Rain = 0
KSM2 010739Z 17010KT 24/10 A2989 RMK A01 T02420098  RH  040%=      5-min Rain = 0
KSM2 010740Z 16011KT 24/10 A2989 RMK A01 T02440102  RH  041%=      5-min Rain = 0
KSM2 010741Z 16010KT 25/11 A2989 RMK A01 T02450105  RH  041%=      5-min Rain = 0
KSM2 010742Z 16011KT 25/11 A2989 RMK A01 T02450107  RH  042%=      5-min Rain = 0
KSM2 010743Z 15009KT 25/11 A2989 RMK A01 T02450111  RH  043%=      5-min Rain = 0
KSM2 010744Z 15009KT 25/12 A2989 RMK A01 T02460115  RH  044%=      5-min Rain = 0
KSM2 010745Z 14012G17KT 25/12 A2989 RMK A01 T02460116  RH  044%=      5-min Rain = 0
KSM2 010746Z 15010KT 25/12 A2989 RMK A01 T02460118  RH  045%=      5-min Rain = 0
KSM2 010747Z 15013G18KT 25/12 A2989 RMK A01 T02450121  RH  046%=      5-min Rain = 0
KSM2 010748Z 15013KT 24/13 A2989 RMK A01 T02440126  RH  048%=      5-min Rain = 0
KSM2 010749Z 16014KT 24/13 A2989 RMK A01 T02440129  RH  049%=      5-min Rain = 0
KSM2 010750Z 16012G17KT 24/13 A2989 RMK A01 T02440130  RH  049%=      5-min Rain = 0
KSM2 010751Z 16013KT 24/13 A2989 RMK A01 T02440133  RH  050%=      5-min Rain = 0
KSM2 010752Z 17012KT 24/13 A2989 RMK A01 T02440134  RH  050%=      5-min Rain = 0
KSM2 010753Z 16013KT 25/14 A2989 RMK A01 T02450137  RH  051%=      5-min Rain = 0
KSM2 010754Z 16013KT 25/14 A2989 RMK A01 T02450139  RH  052%=      5-min Rain = 0
KSM2 010755Z 17013KT 25/14 A2989 RMK A01 T02450142  RH  052%=      5-min Rain = 0
KSM2 010756Z 17012KT 25/14 A2989 RMK A01 T02460144  RH  053%=      5-min Rain = 0
KSM2 010757Z 17013G18KT 25/15 A2989 RMK A01 T02460145  RH  053%=      5-min Rain = 0
KSM2 010758Z 17012KT 25/15 A2989 RMK A01 T02470147  RH  054%=      5-min Rain = 0
KSM2 010759Z 17014KT 25/15 A2989 RMK A01 T02480148  RH  054%=      5-min Rain = 0
KSM2 010800Z 16014KT 25/15 A2989 RMK A01 T02500149  RH  054%=      5-min Rain = 0
KSM2 010801Z 17013KT 25/15 A2989 RMK A01 T02510149  RH  053%=      5-min Rain = 0
KSM2 010802Z 16013KT 25/15 A2989 RMK A01 T02510149  RH  053%=      5-min Rain = 0
KSM2 010803Z 16013KT 25/15 A2989 RMK A01 T02500151  RH  054%=      5-min Rain = 0
KSM2 010804Z 16013KT 25/15 A2989 RMK A01 T02500152  RH  054%=      5-min Rain = 0
KSM2 010805Z 16012KT 25/15 A2989 RMK A01 T02490152  RH  055%=      5-min Rain = 0
KSM2 010806Z 16011KT 25/15 A2989 RMK A01 T02480153  RH  055%=      5-min Rain = 0
KSM2 010807Z 16012KT 25/15 A2989 RMK A01 T02480153  RH  056%=      5-min Rain = 0
KSM2 010808Z 17011G16KT 25/16 A2989 RMK A01 T02480155  RH  056%=      5-min Rain = 0
KSM2 010809Z 17013KT 25/16 A2989 RMK A01 T02480157  RH  057%=      5-min Rain = 0
KSM2 010810Z 17013KT 25/16 A2989 RMK A01 T02480158  RH  057%=      5-min Rain = 0
KSM2 010811Z 17012KT 25/16 A2989 RMK A01 T02480159  RH  058%=      5-min Rain = 0
KSM2 010812Z 17012KT 25/16 A2989 RMK A01 T02480160  RH  058%=      5-min Rain = 0
KSM2 010813Z 17012KT 25/16 A2989 RMK A01 T02480161  RH  058%=      5-min Rain = 0
KSM2 010814Z 17011KT 25/16 A2989 RMK A01 T02490161  RH  058%=      5-min Rain = 0
KSM2 010815Z 18013KT 25/16 A2989 RMK A01 T02480162  RH  058%=      5-min Rain = 0
KSM2 010816Z 18014KT 25/16 A2989 RMK A01 T02490163  RH  059%=      5-min Rain = 0
KSM2 010817Z 17014KT 25/16 A2989 RMK A01 T02490164  RH  059%=      5-min Rain = 0
KSM2 010818Z 18012KT 25/16 A2989 RMK A01 T02490164  RH  059%=      5-min Rain = 0
KSM2 010819Z 17013KT 25/16 A2989 RMK A01 T02490164  RH  059%=      5-min Rain = 0
KSM2 010820Z 18013G20KT 25/17 A2989 RMK A01 T02490166  RH  060%=      5-min Rain = 0
KSM2 010821Z 18013KT 25/17 A2989 RMK A01 T02500166  RH  060%=      5-min Rain = 0
KSM2 010822Z 18011KT 25/17 A2989 RMK A01 T02490166  RH  060%=      5-min Rain = 0
KSM2 010823Z 18012KT 25/17 A2989 RMK A01 T02480166  RH  060%=      5-min Rain = 0
KSM2 010824Z 19014KT 25/17 A2989 RMK A01 T02480167  RH  061%=      5-min Rain = 0
KSM2 010825Z 18013G18KT 25/17 A2989 RMK A01 T02480168  RH  061%=      5-min Rain = 0
KSM2 010826Z 19014KT 25/17 A2989 RMK A01 T02480169  RH  061%=      5-min Rain = 0
KSM2 010827Z 19014KT 25/17 A2989 RMK A01 T02480170  RH  062%=      5-min Rain = 0
KSM2 010828Z 20015KT 25/17 A2988 RMK A01 T02480171  RH  062%=      5-min Rain = 0
KSM2 010829Z 19017KT 25/17 A2988 RMK A01 T02480172  RH  062%=      5-min Rain = 0
KSM2 010830Z 20017KT 25/17 A2988 RMK A01 T02490173  RH  063%=      5-min Rain = 0
KSM2 010831Z 20017KT 25/17 A2988 RMK A01 T02490173  RH  063%=      5-min Rain = 0
KSM2 010832Z 20013KT 25/17 A2988 RMK A01 T02500173  RH  062%=      5-min Rain = 0
KSM2 010833Z 20013G18KT 25/17 A2988 RMK A01 T02490172  RH  062%=      5-min Rain = 0
KSM2 010834Z 21015KT 25/17 A2988 RMK A01 T02490173  RH  063%=      5-min Rain = 0
KSM2 010835Z 20015KT 25/17 A2988 RMK A01 T02490174  RH  063%=      5-min Rain = 0
KSM2 010836Z 21016KT 25/17 A2988 RMK A01 T02500174  RH  063%=      5-min Rain = 0
KSM2 010837Z 21016KT 25/17 A2987 RMK A01 T02500174  RH  063%=      5-min Rain = 0
KSM2 010838Z 21016KT 25/18 A2987 RMK A01 T02510175  RH  063%=      5-min Rain = 0
KSM2 010839Z 21016KT 25/18 A2987 RMK A01 T02510175  RH  063%=      5-min Rain = 0
KSM2 010840Z 21017KT 25/18 A2987 RMK A01 T02510176  RH  063%=      5-min Rain = 0
KSM2 010841Z 21017KT 25/18 A2987 RMK A01 T02510176  RH  063%=      5-min Rain = 0
KSM2 010842Z 21017KT 25/18 A2987 RMK A01 T02510176  RH  063%=      5-min Rain = 0
KSM2 010843Z 21017KT 25/18 A2987 RMK A01 T02510177  RH  063%=      5-min Rain = 0
KSM2 010844Z 21017KT 25/18 A2987 RMK A01 T02510177  RH  063%=      5-min Rain = 0
KSM2 010845Z 21016KT 25/18 A2987 RMK A01 T02520177  RH  063%=      5-min Rain = 0
KSM2 010846Z 21017KT 25/18 A2988 RMK A01 T02520177  RH  063%=      5-min Rain = 0
KSM2 010847Z 21016KT 25/18 A2987 RMK A01 T02520177  RH  063%=      5-min Rain = 0
KSM2 010848Z 21017KT 25/18 A2987 RMK A01 T02520177  RH  063%=      5-min Rain = 0
KSM2 010849Z 21015KT 25/18 A2988 RMK A01 T02520177  RH  063%=      5-min Rain = 0
KSM2 010850Z 21015KT 25/18 A2988 RMK A01 T02520178  RH  064%=      5-min Rain = 0
KSM2 010851Z 21017KT 25/18 A2988 RMK A01 T02520178  RH  064%=      5-min Rain = 0
KSM2 010852Z 21018KT 25/18 A2988 RMK A01 T02520178  RH  064%=      5-min Rain = 0
KSM2 010853Z 21018G23KT 25/18 A2988 RMK A01 T02520179  RH  064%=      5-min Rain = 0
KSM2 010854Z 21017KT 25/18 A2988 RMK A01 T02530179  RH  064%=      5-min Rain = 0
KSM2 010855Z 21018KT 25/18 A2988 RMK A01 T02530179  RH  064%=      5-min Rain = 0
KSM2 010856Z 21016KT 25/18 A2988 RMK A01 T02520179  RH  064%=      5-min Rain = 0
KSM2 010857Z 21016KT 25/18 A2988 RMK A01 T02520178  RH  064%=      5-min Rain = 0
KSM2 010858Z 21016KT 25/18 A2988 RMK A01 T02520179  RH  064%=      5-min Rain = 0
KSM2 010859Z 21018KT 25/18 A2987 RMK A01 T02520178  RH  064%=      5-min Rain = 0
KSM2 010900Z 21017KT 25/18 A2988 RMK A01 T02520178  RH  064%=      5-min Rain = 0
KSM2 010901Z 21016KT 25/18 A2988 RMK A01 T02520178  RH  064%=      5-min Rain = 0
KSM2 010902Z 21016KT 25/18 A2988 RMK A01 T02510178  RH  064%=      5-min Rain = 0
KSM2 010903Z 21015KT 25/18 A2988 RMK A01 T02510177  RH  064%=      5-min Rain = 0
KSM2 010904Z 21014KT 25/18 A2988 RMK A01 T02500177  RH  064%=      5-min Rain = 0
KSM2 010905Z 21015KT 25/18 A2988 RMK A01 T02500177  RH  064%=      5-min Rain = 0
KSM2 010906Z 21015KT 25/18 A2988 RMK A01 T02500177  RH  064%=      5-min Rain = 0
KSM2 010907Z 21015KT 25/18 A2988 RMK A01 T02500177  RH  064%=      5-min Rain = 0
KSM2 010908Z 21016KT 25/18 A2988 RMK A01 T02490177  RH  064%=      5-min Rain = 0
KSM2 010909Z 21016KT 25/18 A2988 RMK A01 T02490176  RH  064%=      5-min Rain = 0
KSM2 010910Z 21015KT 25/18 A2988 RMK A01 T02490176  RH  064%=      5-min Rain = 0
KSM2 010911Z 22015KT 25/18 A2988 RMK A01 T02490176  RH  064%=      5-min Rain = 0
KSM2 010912Z 22015KT 25/18 A2988 RMK A01 T02480176  RH  064%=      5-min Rain = 0
KSM2 010913Z 22015KT 25/18 A2988 RMK A01 T02480176  RH  064%=      5-min Rain = 0
KSM2 010914Z 22015KT 25/18 A2988 RMK A01 T02480176  RH  064%=      5-min Rain = 0
KSM2 010915Z 22014KT 25/18 A2987 RMK A01 T02480176  RH  064%=      5-min Rain = 0
KSM2 010916Z 22015KT 25/18 A2987 RMK A01 T02470176  RH  064%=      5-min Rain = 0
KSM2 010917Z 22014KT 25/18 A2987 RMK A01 T02470176  RH  064%=      5-min Rain = 0
KSM2 010918Z 22013KT 25/18 A2987 RMK A01 T02470176  RH  065%=      5-min Rain = 0
KSM2 010919Z 22015KT 25/18 A2987 RMK A01 T02460176  RH  065%=      5-min Rain = 0
KSM2 010920Z 22014KT 25/18 A2987 RMK A01 T02460176  RH  065%=      5-min Rain = 0
KSM2 010921Z 22015KT 25/18 A2987 RMK A01 T02460176  RH  065%=      5-min Rain = 0
KSM2 010922Z 22014KT 25/18 A2987 RMK A01 T02460176  RH  065%=      5-min Rain = 0
KSM2 010923Z 23014KT 25/18 A2987 RMK A01 T02460176  RH  065%=      5-min Rain = 0
KSM2 010924Z 22013KT 25/18 A2987 RMK A01 T02450175  RH  065%=      5-min Rain = 0
KSM2 010925Z 22013KT 25/18 A2987 RMK A01 T02450175  RH  065%=      5-min Rain = 0
KSM2 010926Z 22014KT 25/18 A2987 RMK A01 T02450175  RH  065%=      5-min Rain = 0
KSM2 010927Z 22013KT 24/18 A2987 RMK A01 T02440175  RH  065%=      5-min Rain = 0
KSM2 010928Z 22014KT 24/18 A2988 RMK A01 T02440175  RH  065%=      5-min Rain = 0
KSM2 010929Z 21013KT 25/18 A2988 RMK A01 T02450175  RH  065%=      5-min Rain = 0
KSM2 010930Z 21012KT 25/18 A2988 RMK A01 T02450175  RH  065%=      5-min Rain = 0
KSM2 010931Z 20013KT 25/18 A2988 RMK A01 T02450175  RH  065%=      5-min Rain = 0
KSM2 010932Z 20011KT 25/18 A2988 RMK A01 T02450175  RH  065%=      5-min Rain = 0
KSM2 010933Z 20011KT 25/18 A2988 RMK A01 T02450175  RH  065%=      5-min Rain = 0
KSM2 010934Z 20011KT 24/18 A2988 RMK A01 T02440175  RH  065%=      5-min Rain = 0
KSM2 010935Z 20011KT 24/17 A2988 RMK A01 T02430174  RH  066%=      5-min Rain = 0
KSM2 010936Z 19011KT 24/17 A2988 RMK A01 T02420174  RH  066%=      5-min Rain = 0
KSM2 010937Z 19010KT 24/17 A2988 RMK A01 T02410174  RH  066%=      5-min Rain = 0
KSM2 010938Z 19010KT 24/17 A2989 RMK A01 T02400174  RH  067%=      5-min Rain = 0
KSM2 010939Z 20010KT 24/17 A2989 RMK A01 T02390174  RH  067%=      5-min Rain = 0
KSM2 010940Z 19009KT 24/17 A2989 RMK A01 T02390174  RH  067%=      5-min Rain = 0
KSM2 010941Z 19010KT 24/18 A2989 RMK A01 T02380175  RH  068%=      5-min Rain = 0
KSM2 010942Z 19010KT 24/17 A2989 RMK A01 T02380174  RH  068%=      5-min Rain = 0
KSM2 010943Z 19010KT 24/18 A2989 RMK A01 T02380175  RH  068%=      5-min Rain = 0
KSM2 010944Z 19009KT 24/17 A2989 RMK A01 T02370174  RH  068%=      5-min Rain = 0
KSM2 010945Z 19010KT 24/18 A2989 RMK A01 T02370175  RH  068%=      5-min Rain = 0
KSM2 010946Z 20009KT 24/18 A2989 RMK A01 T02370175  RH  068%=      5-min Rain = 0
KSM2 010947Z 20009KT 24/18 A2989 RMK A01 T02360175  RH  068%=      5-min Rain = 0
KSM2 010948Z 20009KT 24/18 A2989 RMK A01 T02360175  RH  068%=      5-min Rain = 0
KSM2 010949Z 20009KT 24/18 A2989 RMK A01 T02360175  RH  068%=      5-min Rain = 0
KSM2 010950Z 20008KT 24/18 A2989 RMK A01 T02360175  RH  069%=      5-min Rain = 0
KSM2 010951Z 20009KT 24/18 A2989 RMK A01 T02360175  RH  069%=      5-min Rain = 0
KSM2 010952Z 21009KT 24/18 A2989 RMK A01 T02350175  RH  069%=      5-min Rain = 0
KSM2 010953Z 20008KT 24/18 A2989 RMK A01 T02360175  RH  068%=      5-min Rain = 0
KSM2 010954Z 20009KT 24/18 A2989 RMK A01 T02370175  RH  068%=      5-min Rain = 0
KSM2 010955Z 20009KT 24/18 A2989 RMK A01 T02370175  RH  068%=      5-min Rain = 0
KSM2 010956Z 20009KT 24/17 A2989 RMK A01 T02370174  RH  068%=      5-min Rain = 0
KSM2 010957Z 20010KT 24/17 A2989 RMK A01 T02370174  RH  068%=      5-min Rain = 0
KSM2 010958Z 20009KT 24/18 A2989 RMK A01 T02360175  RH  068%=      5-min Rain = 0
KSM2 010959Z 20010KT 24/17 A2989 RMK A01 T02360174  RH  068%=      5-min Rain = 0
KSM2 011000Z 19010KT 24/17 A2989 RMK A01 T02350174  RH  069%=      5-min Rain = 0
KSM2 011001Z 19009KT 23/17 A2989 RMK A01 T02340174  RH  069%=      5-min Rain = 0
KSM2 011002Z 19010KT 23/17 A2989 RMK A01 T02330174  RH  069%=      5-min Rain = 0
KSM2 011003Z 19010KT 23/17 A2989 RMK A01 T02330174  RH  070%=      5-min Rain = 0
KSM2 011004Z 19009KT 23/17 A2989 RMK A01 T02320174  RH  070%=      5-min Rain = 0
KSM2 011005Z 18009KT 23/17 A2989 RMK A01 T02320174  RH  070%=      5-min Rain = 0
KSM2 011006Z 19009KT 23/17 A2989 RMK A01 T02310174  RH  070%=      5-min Rain = 0
KSM2 011007Z 19010KT 23/17 A2989 RMK A01 T02310174  RH  070%=      5-min Rain = 0
KSM2 011008Z 19009KT 23/17 A2989 RMK A01 T02310174  RH  070%=      5-min Rain = 0
KSM2 011009Z 19009KT 23/17 A2989 RMK A01 T02310174  RH  070%=      5-min Rain = 0
KSM2 011010Z 19009KT 23/17 A2989 RMK A01 T02310174  RH  070%=      5-min Rain = 0
KSM2 011011Z 20009KT 23/17 A2989 RMK A01 T02300174  RH  071%=      5-min Rain = 0
KSM2 011012Z 20009KT 23/17 A2989 RMK A01 T02300174  RH  071%=      5-min Rain = 0
KSM2 011013Z 20009KT 23/17 A2989 RMK A01 T02300174  RH  071%=      5-min Rain = 0
KSM2 011014Z 20010KT 23/17 A2989 RMK A01 T02290174  RH  071%=      5-min Rain = 0
KSM2 011015Z 20009KT 23/17 A2989 RMK A01 T02300174  RH  071%=      5-min Rain = 0
KSM2 011016Z 20009KT 23/17 A2989 RMK A01 T02300174  RH  070%=      5-min Rain = 0
KSM2 011017Z 20009KT 23/17 A2989 RMK A01 T02300174  RH  070%=      5-min Rain = 0
KSM2 011018Z 20008KT 23/17 A2989 RMK A01 T02300174  RH  070%=      5-min Rain = 0
KSM2 011019Z 20008KT 23/17 A2989 RMK A01 T02300173  RH  071%=      5-min Rain = 0
KSM2 011020Z 20008KT 23/17 A2989 RMK A01 T02290173  RH  071%=      5-min Rain = 0
KSM2 011021Z 20008KT 23/17 A2989 RMK A01 T02300174  RH  070%=      5-min Rain = 0
KSM2 011022Z 20009KT 23/17 A2989 RMK A01 T02300173  RH  070%=      5-min Rain = 0
KSM2 011023Z 19009KT 23/17 A2989 RMK A01 T02290173  RH  070%=      5-min Rain = 0
KSM2 011024Z 19009KT 23/17 A2989 RMK A01 T02280173  RH  071%=      5-min Rain = 0
KSM2 011025Z 19009KT 23/17 A2989 RMK A01 T02280173  RH  071%=      5-min Rain = 0
KSM2 011026Z 19010KT 23/17 A2989 RMK A01 T02270172  RH  071%=      5-min Rain = 0
KSM2 011027Z 19010KT 23/17 A2989 RMK A01 T02270173  RH  071%=      5-min Rain = 0
KSM2 011028Z 19009KT 23/17 A2989 RMK A01 T02270172  RH  071%=      5-min Rain = 0
KSM2 011029Z 19009KT 23/17 A2989 RMK A01 T02260172  RH  072%=      5-min Rain = 0
KSM2 011030Z 19010KT 23/17 A2989 RMK A01 T02260173  RH  072%=      5-min Rain = 0
KSM2 011031Z 19009KT 23/17 A2989 RMK A01 T02260173  RH  072%=      5-min Rain = 0
KSM2 011032Z 19009KT 23/17 A2989 RMK A01 T02250173  RH  072%=      5-min Rain = 0
KSM2 011033Z 19010KT 23/17 A2989 RMK A01 T02260173  RH  072%=      5-min Rain = 0
KSM2 011034Z 20008KT 23/17 A2989 RMK A01 T02250173  RH  072%=      5-min Rain = 0
KSM2 011035Z 20008KT 23/17 A2989 RMK A01 T02250173  RH  072%=      5-min Rain = 0
KSM2 011036Z 20008KT 23/17 A2989 RMK A01 T02250173  RH  072%=      5-min Rain = 0
KSM2 011037Z 20011KT 23/17 A2989 RMK A01 T02250173  RH  072%=      5-min Rain = 0
KSM2 011038Z 21011KT 23/17 A2989 RMK A01 T02270174  RH  072%=      5-min Rain = 0
KSM2 011039Z 21011KT 23/17 A2989 RMK A01 T02280174  RH  071%=      5-min Rain = 0
KSM2 011040Z 21011KT 23/17 A2989 RMK A01 T02290174  RH  071%=      5-min Rain = 0
KSM2 011041Z 21011KT 23/17 A2989 RMK A01 T02290174  RH  071%=      5-min Rain = 0
KSM2 011042Z 21011KT 23/17 A2989 RMK A01 T02300174  RH  071%=      5-min Rain = 0
KSM2 011043Z 21010KT 23/17 A2989 RMK A01 T02290174  RH  071%=      5-min Rain = 0
KSM2 011044Z 20010KT 23/17 A2989 RMK A01 T02290173  RH  071%=      5-min Rain = 0
KSM2 011045Z 20009KT 23/17 A2989 RMK A01 T02280173  RH  071%=      5-min Rain = 0
KSM2 011046Z 20010KT 23/17 A2989 RMK A01 T02280173  RH  071%=      5-min Rain = 0
KSM2 011047Z 20009KT 23/17 A2989 RMK A01 T02280173  RH  071%=      5-min Rain = 0
KSM2 011048Z 20009KT 23/17 A2989 RMK A01 T02270173  RH  071%=      5-min Rain = 0
KSM2 011049Z 20009KT 23/17 A2989 RMK A01 T02260172  RH  072%=      5-min Rain = 0
KSM2 011050Z 20010KT 23/17 A2989 RMK A01 T02250172  RH  072%=      5-min Rain = 0
KSM2 011051Z 19010KT 23/17 A2989 RMK A01 T02250172  RH  072%=      5-min Rain = 0
KSM2 011052Z 19009KT 23/17 A2989 RMK A01 T02250172  RH  072%=      5-min Rain = 0
KSM2 011053Z 19009KT 23/17 A2989 RMK A01 T02250172  RH  072%=      5-min Rain = 0
KSM2 011054Z 19009KT 23/17 A2989 RMK A01 T02250172  RH  072%=      5-min Rain = 0
KSM2 011055Z 19010KT 23/17 A2989 RMK A01 T02250171  RH  072%=      5-min Rain = 0
KSM2 011056Z 20009KT 23/17 A2989 RMK A01 T02250172  RH  072%=      5-min Rain = 0
KSM2 011057Z 20010KT 23/17 A2989 RMK A01 T02250171  RH  072%=      5-min Rain = 0
KSM2 011058Z 19010KT 23/17 A299 RMK A01 T02250172  RH  072%=      5-min Rain = 0
KSM2 011059Z 19011KT 23/17 A2989 RMK A01 T02260172  RH  071%=      5-min Rain = 0
KSM2 011100Z 19009KT 23/17 A299 RMK A01 T02260172  RH  071%=      5-min Rain = 0
KSM2 011101Z 19009KT 23/17 A299 RMK A01 T02250172  RH  072%=      5-min Rain = 0
KSM2 011102Z 19009KT 23/17 A299 RMK A01 T02250172  RH  072%=      5-min Rain = 0
KSM2 011103Z 19008KT 22/17 A299 RMK A01 T02240172  RH  072%=      5-min Rain = 0
KSM2 011104Z 19008KT 22/17 A299 RMK A01 T02240172  RH  072%=      5-min Rain = 0
KSM2 011105Z 19007KT 22/17 A299 RMK A01 T02230172  RH  073%=      5-min Rain = 0
KSM2 011106Z 19007KT 22/17 A299 RMK A01 T02220171  RH  073%=      5-min Rain = 0
KSM2 011107Z 19007KT 22/17 A299 RMK A01 T02210171  RH  073%=      5-min Rain = 0
KSM2 011108Z 19007KT 22/17 A299 RMK A01 T02200171  RH  074%=      5-min Rain = 0
KSM2 011109Z 18007KT 22/17 A299 RMK A01 T02190171  RH  074%=      5-min Rain = 0
KSM2 011110Z 18008KT 22/17 A299 RMK A01 T02190172  RH  075%=      5-min Rain = 0
KSM2 011111Z 18008KT 22/17 A299 RMK A01 T02190172  RH  075%=      5-min Rain = 0
KSM2 011112Z 18008KT 22/17 A299 RMK A01 T02180172  RH  075%=      5-min Rain = 0
KSM2 011113Z 18007KT 22/17 A299 RMK A01 T02190172  RH  075%=      5-min Rain = 0
KSM2 011114Z 19007KT 22/17 A299 RMK A01 T02190172  RH  074%=      5-min Rain = 0
KSM2 011115Z 19008KT 22/17 A299 RMK A01 T02180172  RH  075%=      5-min Rain = 0
KSM2 011116Z 19008KT 22/17 A299 RMK A01 T02180171  RH  075%=      5-min Rain = 0
KSM2 011117Z 19008KT 22/17 A299 RMK A01 T02170171  RH  075%=      5-min Rain = 0
KSM2 011118Z 20009KT 22/17 A299 RMK A01 T02170171  RH  075%=      5-min Rain = 0
KSM2 011119Z 20009KT 22/17 A299 RMK A01 T02160171  RH  075%=      5-min Rain = 0
KSM2 011120Z 20008KT 22/17 A299 RMK A01 T02160171  RH  075%=      5-min Rain = 0
KSM2 011121Z 20008KT 22/17 A299 RMK A01 T02170171  RH  075%=      5-min Rain = 0
KSM2 011122Z 20008KT 22/17 A299 RMK A01 T02170171  RH  075%=      5-min Rain = 0
KSM2 011123Z 20009KT 22/17 A299 RMK A01 T02180171  RH  075%=      5-min Rain = 0
KSM2 011124Z 20008KT 22/17 A299 RMK A01 T02180171  RH  074%=      5-min Rain = 0
KSM2 011125Z 20008KT 22/17 A299 RMK A01 T02180171  RH  074%=      5-min Rain = 0
KSM2 011126Z 20008KT 22/17 A299 RMK A01 T02180170  RH  074%=      5-min Rain = 0
KSM2 011127Z 20008KT 22/17 A299 RMK A01 T02180170  RH  074%=      5-min Rain = 0
KSM2 011128Z 20008KT 22/17 A299 RMK A01 T02180170  RH  074%=      5-min Rain = 0
KSM2 011129Z 21008KT 22/17 A299 RMK A01 T02180171  RH  074%=      5-min Rain = 0
KSM2 011130Z 20007KT 22/17 A299 RMK A01 T02180170  RH  074%=      5-min Rain = 0
KSM2 011131Z 20007KT 22/17 A299 RMK A01 T02180170  RH  074%=      5-min Rain = 0
KSM2 011132Z 20007KT 22/17 A2991 RMK A01 T02180170  RH  074%=      5-min Rain = 0
KSM2 011133Z 20007KT 22/17 A2991 RMK A01 T02170170  RH  074%=      5-min Rain = 0
KSM2 011134Z 20008KT 22/17 A2991 RMK A01 T02170169  RH  074%=      5-min Rain = 0
KSM2 011135Z 20007KT 22/17 A2991 RMK A01 T02170169  RH  074%=      5-min Rain = 0
KSM2 011136Z 20008KT 22/17 A2991 RMK A01 T02160169  RH  074%=      5-min Rain = 0
KSM2 011137Z 20008KT 22/17 A2991 RMK A01 T02170169  RH  074%=      5-min Rain = 0
KSM2 011138Z 20008KT 22/17 A2991 RMK A01 T02170169  RH  074%=      5-min Rain = 0
KSM2 011139Z 20007KT 22/17 A2991 RMK A01 T02170169  RH  074%=      5-min Rain = 0
KSM2 011140Z 20007KT 22/17 A2991 RMK A01 T02170169  RH  074%=      5-min Rain = 0
KSM2 011141Z 20008KT 22/17 A2991 RMK A01 T02160169  RH  074%=      5-min Rain = 0
KSM2 011142Z 21008KT 22/17 A2991 RMK A01 T02160169  RH  075%=      5-min Rain = 0
KSM2 011143Z 21009KT 22/17 A2991 RMK A01 T02160169  RH  075%=      5-min Rain = 0
KSM2 011144Z 21010KT 22/17 A2991 RMK A01 T02170169  RH  074%=      5-min Rain = 0
KSM2 011145Z 21010KT 22/17 A2991 RMK A01 T02170169  RH  074%=      5-min Rain = 0
KSM2 011146Z 21011KT 22/17 A2991 RMK A01 T02180169  RH  074%=      5-min Rain = 0
KSM2 011147Z 21010KT 22/17 A2991 RMK A01 T02180169  RH  073%=      5-min Rain = 0
KSM2 011148Z 21010KT 22/17 A2991 RMK A01 T02190169  RH  073%=      5-min Rain = 0
KSM2 011149Z 21010KT 22/17 A2991 RMK A01 T02190169  RH  073%=      5-min Rain = 0
KSM2 011150Z 21011KT 22/17 A2991 RMK A01 T02190169  RH  073%=      5-min Rain = 0
KSM2 011151Z 21011KT 22/17 A2991 RMK A01 T02190169  RH  073%=      5-min Rain = 0
KSM2 011152Z 21011KT 22/17 A2991 RMK A01 T02190168  RH  073%=      5-min Rain = 0
KSM2 011153Z 21011KT 22/17 A2991 RMK A01 T02190168  RH  073%=      5-min Rain = 0
KSM2 011154Z 21012KT 22/17 A2991 RMK A01 T02190169  RH  073%=      5-min Rain = 0
KSM2 011155Z 21010KT 22/17 A2991 RMK A01 T02190168  RH  073%=      5-min Rain = 0
KSM2 011156Z 21011KT 22/17 A2991 RMK A01 T02190168  RH  073%=      5-min Rain = 0
KSM2 011157Z 21010KT 22/17 A2991 RMK A01 T02190168  RH  073%=      5-min Rain = 0
KSM2 011158Z 21010KT 22/17 A2991 RMK A01 T02190168  RH  073%=      5-min Rain = 0
KSM2 011159Z 21011KT 22/17 A2991 RMK A01 T02180167  RH  073%=      5-min Rain = 0
KSM2 011200Z 21011KT 22/17 A2991 RMK A01 T02190167  RH  072%=      5-min Rain = 0
KSM2 011201Z 21011KT 22/17 A2991 RMK A01 T02190167  RH  072%=      5-min Rain = 0
KSM2 011202Z 21011KT 22/17 A2991 RMK A01 T02190167  RH  072%=      5-min Rain = 0
KSM2 011203Z 21010KT 22/17 A2991 RMK A01 T02190166  RH  072%=      5-min Rain = 0
KSM2 011204Z 21010KT 22/17 A2991 RMK A01 T02200167  RH  072%=      5-min Rain = 0
KSM2 011205Z 21009KT 22/17 A2991 RMK A01 T02200167  RH  072%=      5-min Rain = 0
KSM2 011206Z 20008KT 22/17 A2991 RMK A01 T02200167  RH  072%=      5-min Rain = 0
KSM2 011207Z 20008KT 22/17 A2992 RMK A01 T02190167  RH  072%=      5-min Rain = 0
KSM2 011208Z 20008KT 22/17 A2992 RMK A01 T02180166  RH  073%=      5-min Rain = 0
KSM2 011209Z 20008KT 22/17 A2992 RMK A01 T02170166  RH  073%=      5-min Rain = 0
KSM2 011210Z 20007KT 22/17 A2992 RMK A01 T02160166  RH  073%=      5-min Rain = 0
KSM2 011211Z 20008KT 22/17 A2992 RMK A01 T02160166  RH  073%=      5-min Rain = 0
KSM2 011212Z 20007KT 22/17 A2992 RMK A01 T02160166  RH  073%=      5-min Rain = 0
KSM2 011213Z 20009KT 22/17 A2991 RMK A01 T02160166  RH  073%=      5-min Rain = 0
KSM2 011214Z 20009KT 22/17 A2991 RMK A01 T02160166  RH  073%=      5-min Rain = 0
KSM2 011215Z 20009KT 22/17 A2991 RMK A01 T02160167  RH  073%=      5-min Rain = 0
KSM2 011216Z 21009KT 22/17 A2991 RMK A01 T02170166  RH  073%=      5-min Rain = 0
KSM2 011217Z 21009KT 22/17 A2991 RMK A01 T02170166  RH  073%=      5-min Rain = 0
KSM2 011218Z 21009KT 22/17 A2992 RMK A01 T02180166  RH  072%=      5-min Rain = 0
KSM2 011219Z 20009KT 22/17 A2992 RMK A01 T02180166  RH  072%=      5-min Rain = 0
KSM2 011220Z 20009KT 22/17 A2992 RMK A01 T02180166  RH  072%=      5-min Rain = 0
KSM2 011221Z 20008KT 22/17 A2992 RMK A01 T02190166  RH  072%=      5-min Rain = 0
KSM2 011222Z 21008KT 22/17 A2992 RMK A01 T02190166  RH  072%=      5-min Rain = 0
KSM2 011223Z 21010KT 22/17 A2992 RMK A01 T02190166  RH  072%=      5-min Rain = 0
KSM2 011224Z 21009KT 22/17 A2992 RMK A01 T02190166  RH  072%=      5-min Rain = 0
KSM2 011225Z 21007KT 22/17 A2992 RMK A01 T02200166  RH  072%=      5-min Rain = 0
KSM2 011226Z 21010KT 22/17 A2992 RMK A01 T02200166  RH  071%=      5-min Rain = 0
KSM2 011227Z 21010KT 22/17 A2992 RMK A01 T02210165  RH  071%=      5-min Rain = 0
KSM2 011228Z 22008KT 22/17 A2992 RMK A01 T02220166  RH  071%=      5-min Rain = 0
KSM2 011229Z 22009KT 22/17 A2992 RMK A01 T02220165  RH  070%=      5-min Rain = 0
KSM2 011230Z 21008KT 22/17 A2992 RMK A01 T02220166  RH  070%=      5-min Rain = 0
KSM2 011231Z 21009KT 22/17 A2992 RMK A01 T02220166  RH  070%=      5-min Rain = 0
KSM2 011232Z 22008KT 22/17 A2992 RMK A01 T02220165  RH  070%=      5-min Rain = 0
KSM2 011233Z 22009KT 22/17 A2992 RMK A01 T02230166  RH  070%=      5-min Rain = 0
KSM2 011234Z 23008KT 22/17 A2992 RMK A01 T02230166  RH  070%=      5-min Rain = 0
KSM2 011235Z 22008KT 22/17 A2992 RMK A01 T02230166  RH  070%=      5-min Rain = 0
KSM2 011236Z 22008KT 22/17 A2992 RMK A01 T02240166  RH  070%=      5-min Rain = 0
KSM2 011237Z 22009KT 22/17 A2992 RMK A01 T02240166  RH  070%=      5-min Rain = 0
KSM2 011238Z 23008KT 23/17 A2992 RMK A01 T02250166  RH  069%=      5-min Rain = 0
KSM2 011239Z 22008KT 23/17 A2992 RMK A01 T02250166  RH  069%=      5-min Rain = 0
KSM2 011240Z 22008KT 23/17 A2992 RMK A01 T02260166  RH  069%=      5-min Rain = 0
KSM2 011241Z 23008KT 23/17 A2992 RMK A01 T02260166  RH  069%=      5-min Rain = 0
KSM2 011242Z 23008KT 23/17 A2992 RMK A01 T02260165  RH  069%=      5-min Rain = 0
KSM2 011243Z 23008KT 23/17 A2992 RMK A01 T02260165  RH  068%=      5-min Rain = 0
KSM2 011244Z 23009KT 23/17 A2992 RMK A01 T02260165  RH  068%=      5-min Rain = 0
KSM2 011245Z 23009KT 23/17 A2992 RMK A01 T02260165  RH  068%=      5-min Rain = 0
KSM2 011246Z 23009KT 23/17 A2992 RMK A01 T02270165  RH  068%=      5-min Rain = 0
KSM2 011247Z 22010KT 23/17 A2992 RMK A01 T02270165  RH  068%=      5-min Rain = 0
KSM2 011248Z 23010KT 23/17 A2992 RMK A01 T02270165  RH  068%=      5-min Rain = 0
KSM2 011249Z 23009KT 23/17 A2992 RMK A01 T02280165  RH  068%=      5-min Rain = 0
KSM2 011250Z 23010KT 23/17 A2992 RMK A01 T02280165  RH  067%=      5-min Rain = 0
KSM2 011251Z 23009KT 23/17 A2992 RMK A01 T02290165  RH  067%=      5-min Rain = 0
KSM2 011252Z 23009KT 23/17 A2992 RMK A01 T02290165  RH  067%=      5-min Rain = 0
KSM2 011253Z 23009KT 23/17 A2992 RMK A01 T02300166  RH  067%=      5-min Rain = 0
KSM2 011254Z 23009KT 23/17 A2992 RMK A01 T02300166  RH  067%=      5-min Rain = 0
KSM2 011255Z 23009KT 23/17 A2992 RMK A01 T02310166  RH  067%=      5-min Rain = 0
KSM2 011256Z 23010KT 23/17 A2992 RMK A01 T02310166  RH  067%=      5-min Rain = 0
KSM2 011257Z 23010KT 23/17 A2992 RMK A01 T02320165  RH  066%=      5-min Rain = 0
KSM2 011258Z 23009KT 23/17 A2992 RMK A01 T02320165  RH  066%=      5-min Rain = 0
KSM2 011259Z 23009KT 23/17 A2992 RMK A01 T02330165  RH  066%=      5-min Rain = 0
KSM2 011300Z 23010KT 23/17 A2992 RMK A01 T02340165  RH  065%=      5-min Rain = 0
KSM2 011301Z 23010KT 24/17 A2992 RMK A01 T02350165  RH  065%=      5-min Rain = 0
KSM2 011302Z 23010KT 24/17 A2992 RMK A01 T02350165  RH  065%=      5-min Rain = 0
KSM2 011303Z 23011KT 24/17 A2992 RMK A01 T02360166  RH  065%=      5-min Rain = 0
KSM2 011304Z 23010KT 24/17 A2992 RMK A01 T02360165  RH  064%=      5-min Rain = 0
KSM2 011305Z 23011KT 24/17 A2992 RMK A01 T02370165  RH  064%=      5-min Rain = 0
KSM2 011306Z 23012KT 24/16 A2992 RMK A01 T02370164  RH  064%=      5-min Rain = 0
KSM2 011307Z 23010KT 24/17 A2992 RMK A01 T02380165  RH  064%=      5-min Rain = 0
KSM2 011308Z 23011KT 24/17 A2992 RMK A01 T02380165  RH  064%=      5-min Rain = 0
KSM2 011309Z 23012KT 24/16 A2992 RMK A01 T02380164  RH  063%=      5-min Rain = 0
KSM2 011310Z 22011KT 24/16 A2992 RMK A01 T02390164  RH  063%=      5-min Rain = 0
KSM2 011311Z 23009KT 24/17 A2993 RMK A01 T02390165  RH  063%=      5-min Rain = 0
KSM2 011312Z 23009KT 24/17 A2993 RMK A01 T02400165  RH  063%=      5-min Rain = 0
KSM2 011313Z 23009KT 24/17 A2993 RMK A01 T02410165  RH  063%=      5-min Rain = 0
KSM2 011314Z 23010KT 24/17 A2993 RMK A01 T02410166  RH  063%=      5-min Rain = 0
KSM2 011315Z 23011KT 24/17 A2993 RMK A01 T02420165  RH  062%=      5-min Rain = 0
KSM2 011316Z 23010KT 24/17 A2993 RMK A01 T02420165  RH  062%=      5-min Rain = 0
KSM2 011317Z 23011KT 24/17 A2993 RMK A01 T02430165  RH  062%=      5-min Rain = 0
KSM2 011318Z 23011KT 24/16 A2993 RMK A01 T02440164  RH  061%=      5-min Rain = 0
KSM2 011319Z 23009KT 24/17 A2993 RMK A01 T02440166  RH  061%=      5-min Rain = 0
KSM2 011320Z 23010KT 25/17 A2993 RMK A01 T02450165  RH  061%=      5-min Rain = 0
KSM2 011321Z 24010KT 25/17 A2993 RMK A01 T02450165  RH  061%=      5-min Rain = 0
KSM2 011322Z 23011KT 25/16 A2993 RMK A01 T02450164  RH  061%=      5-min Rain = 0
KSM2 011323Z 24010KT 25/17 A2993 RMK A01 T02450165  RH  061%=      5-min Rain = 0
KSM2 011324Z 23009KT 25/17 A2993 RMK A01 T02460166  RH  061%=      5-min Rain = 0
KSM2 011325Z 24010KT 25/17 A2993 RMK A01 T02470166  RH  060%=      5-min Rain = 0
KSM2 011326Z 24011KT 25/16 A2993 RMK A01 T02480164  RH  060%=      5-min Rain = 0
KSM2 011327Z 24012KT 25/16 A2993 RMK A01 T02480163  RH  059%=      5-min Rain = 0
KSM2 011328Z 24011KT 25/16 A2993 RMK A01 T02490163  RH  059%=      5-min Rain = 0
KSM2 011329Z 24010KT 25/16 A2993 RMK A01 T02500164  RH  059%=      5-min Rain = 0
KSM2 011330Z 24011KT 25/16 A2993 RMK A01 T02510164  RH  059%=      5-min Rain = 0
KSM2 011331Z 24011KT 25/16 A2993 RMK A01 T02520163  RH  057%=      5-min Rain = 0
KSM2 011332Z 24010KT 25/16 A2993 RMK A01 T02530161  RH  057%=      5-min Rain = 0
KSM2 011333Z 23010KT 25/16 A2993 RMK A01 T02530162  RH  057%=      5-min Rain = 0
KSM2 011334Z 24009KT 25/16 A2993 RMK A01 T02540162  RH  057%=      5-min Rain = 0
KSM2 011335Z 24010KT 25/16 A2993 RMK A01 T02540163  RH  057%=      5-min Rain = 0
KSM2 011336Z 23011KT 26/16 A2993 RMK A01 T02550162  RH  056%=      5-min Rain = 0
KSM2 011337Z 23011KT 26/16 A2993 RMK A01 T02560162  RH  056%=      5-min Rain = 0
KSM2 011338Z 24011KT 26/16 A2993 RMK A01 T02560162  RH  056%=      5-min Rain = 0
KSM2 011339Z 24011KT 26/16 A2993 RMK A01 T02570161  RH  055%=      5-min Rain = 0
KSM2 011340Z 24009KT 26/16 A2993 RMK A01 T02580163  RH  056%=      5-min Rain = 0
KSM2 011341Z 23009KT 26/16 A2993 RMK A01 T02600162  RH  055%=      5-min Rain = 0
KSM2 011342Z 23008KT 26/16 A2993 RMK A01 T02610164  RH  055%=      5-min Rain = 0
KSM2 011343Z 23010KT 26/16 A2993 RMK A01 T02620162  RH  054%=      5-min Rain = 0
KSM2 011344Z 23010KT 26/16 A2993 RMK A01 T02620161  RH  053%=      5-min Rain = 0
KSM2 011345Z 24013KT 26/16 A2993 RMK A01 T02630157  RH  052%=      5-min Rain = 0
KSM2 011346Z 23011KT 26/16 A2993 RMK A01 T02620156  RH  052%=      5-min Rain = 0
KSM2 011347Z 23011KT 26/16 A2993 RMK A01 T02620155  RH  052%=      5-min Rain = 0
KSM2 011348Z 24011KT 26/16 A2993 RMK A01 T02620155  RH  052%=      5-min Rain = 0
KSM2 011349Z 22009KT 26/16 A2993 RMK A01 T02630157  RH  052%=      5-min Rain = 0
KSM2 011350Z 22012KT 27/16 A2994 RMK A01 T02650156  RH  051%=      5-min Rain = 0
KSM2 011351Z 23012KT 27/16 A2994 RMK A01 T02650155  RH  051%=      5-min Rain = 0
KSM2 011352Z 23010KT 27/16 A2994 RMK A01 T02650155  RH  051%=      5-min Rain = 0
KSM2 011353Z 22011KT 27/15 A2994 RMK A01 T02660153  RH  050%=      5-min Rain = 0
KSM2 011354Z 23011KT 27/15 A2994 RMK A01 T02670152  RH  049%=      5-min Rain = 0
KSM2 011355Z 23011KT 27/15 A2994 RMK A01 T02670152  RH  049%=      5-min Rain = 0
KSM2 011356Z 21010KT 27/15 A2994 RMK A01 T02670152  RH  049%=      5-min Rain = 0
KSM2 011357Z 22009KT 27/15 A2994 RMK A01 T02670153  RH  050%=      5-min Rain = 0
KSM2 011358Z 22011KT 27/15 A2994 RMK A01 T02670151  RH  049%=      5-min Rain = 0
KSM2 011359Z 23010KT 27/15 A2994 RMK A01 T02670151  RH  049%=      5-min Rain = 0
KSM2 011400Z 23011KT 27/15 A2995 RMK A01 T02670151  RH  049%=      5-min Rain = 0
KSM2 011401Z 23011KT 27/15 A2995 RMK A01 T02670150  RH  049%=      5-min Rain = 0
KSM2 011402Z 24011KT 27/15 A2995 RMK A01 T02670150  RH  049%=      5-min Rain = 0
KSM2 011403Z 24011KT 27/15 A2995 RMK A01 T02670149  RH  048%=      5-min Rain = 0
KSM2 011404Z 25011KT 27/15 A2995 RMK A01 T02670150  RH  048%=      5-min Rain = 0
KSM2 011405Z 25012KT 27/15 A2995 RMK A01 T02690149  RH  048%=      5-min Rain = 0
KSM2 011406Z 25011KT 27/15 A2995 RMK A01 T02700148  RH  047%=      5-min Rain = 0
KSM2 011407Z 26010KT 27/15 A2995 RMK A01 T02720148  RH  047%=      5-min Rain = 0
KSM2 011408Z 25011KT 27/15 A2995 RMK A01 T02730145  RH  046%=      5-min Rain = 0
KSM2 011409Z 26011KT 27/14 A2995 RMK A01 T02730144  RH  045%=      5-min Rain = 0
KSM2 011410Z 25009KT 27/15 A2995 RMK A01 T02730145  RH  046%=      5-min Rain = 0
KSM2 011411Z 26011KT 27/14 A2995 RMK A01 T02730143  RH  045%=      5-min Rain = 0
KSM2 011412Z 26009KT 27/14 A2995 RMK A01 T02740143  RH  045%=      5-min Rain = 0
KSM2 011413Z 27011KT 28/14 A2995 RMK A01 T02760140  RH  043%=      5-min Rain = 0
KSM2 011414Z 27011KT 28/13 A2995 RMK A01 T02760132  RH  041%=      5-min Rain = 0
KSM2 011415Z 26011KT 27/13 A2996 RMK A01 T02740133  RH  042%=      5-min Rain = 0
KSM2 011416Z 25010KT 27/14 A2996 RMK A01 T02740135  RH  042%=      5-min Rain = 0
KSM2 011417Z 26008KT 27/14 A2996 RMK A01 T02740137  RH  043%=      5-min Rain = 0
KSM2 011418Z 25010KT 27/14 A2996 RMK A01 T02730136  RH  043%=      5-min Rain = 0
KSM2 011419Z 26009KT 27/14 A2996 RMK A01 T02730135  RH  043%=      5-min Rain = 0
KSM2 011420Z 27010KT 28/13 A2996 RMK A01 T02760130  RH  041%=      5-min Rain = 0
KSM2 011421Z 27009KT 28/13 A2996 RMK A01 T02760127  RH  040%=      5-min Rain = 0
KSM2 011422Z 27009KT 27/13 A2996 RMK A01 T02740131  RH  041%=      5-min Rain = 0
KSM2 011423Z 26008KT 27/13 A2996 RMK A01 T02740130  RH  041%=      5-min Rain = 0
KSM2 011424Z 27007KT 28/13 A2996 RMK A01 T02750134  RH  042%=      5-min Rain = 0
KSM2 011425Z 25006KT 28/13 A2995 RMK A01 T02770133  RH  041%=      5-min Rain = 0
KSM2 011426Z 26007KT 28/13 A2995 RMK A01 T02780131  RH  040%=      5-min Rain = 0
KSM2 011427Z 27008KT 28/13 A2995 RMK A01 T02780131  RH  040%=      5-min Rain = 0
KSM2 011428Z 27007KT 28/13 A2995 RMK A01 T02790126  RH  039%=      5-min Rain = 0
KSM2 011429Z 27006KT 28/13 A2995 RMK A01 T02790127  RH  039%=      5-min Rain = 0
KSM2 011430Z 26008KT 28/13 A2995 RMK A01 T02800129  RH  039%=      5-min Rain = 0
KSM2 011431Z 26007KT 28/13 A2995 RMK A01 T02800126  RH  039%=      5-min Rain = 0
KSM2 011432Z 26006KT 28/13 A2995 RMK A01 T02780127  RH  039%=      5-min Rain = 0
KSM2 011433Z 24008KT 28/13 A2995 RMK A01 T02780127  RH  039%=      5-min Rain = 0
KSM2 011434Z 25006KT 28/13 A2995 RMK A01 T02770127  RH  039%=      5-min Rain = 0
KSM2 011435Z 25006KT 28/13 A2995 RMK A01 T02780130  RH  040%=      5-min Rain = 0
KSM2 011436Z 26006KT 28/13 A2996 RMK A01 T02800126  RH  039%=      5-min Rain = 0
KSM2 011437Z 28007KT 28/13 A2996 RMK A01 T02800126  RH  039%=      5-min Rain = 0
KSM2 011438Z 28007KT 28/12 A2996 RMK A01 T02800118  RH  037%=      5-min Rain = 0
KSM2 011439Z 27008KT 28/12 A2995 RMK A01 T02820121  RH  037%=      5-min Rain = 0
KSM2 011440Z 26010KT 28/11 A2995 RMK A01 T02840114  RH  035%=      5-min Rain = 0
KSM2 011441Z 25007KT 28/11 A2995 RMK A01 T02830113  RH  035%=      5-min Rain = 0
KSM2 011442Z 25010KT 28/11 A2995 RMK A01 T02820113  RH  035%=      5-min Rain = 0
KSM2 011443Z 25007KT 28/11 A2995 RMK A01 T02820106  RH  033%=      5-min Rain = 0
KSM2 011444Z 25006KT 28/11 A2995 RMK A01 T02820113  RH  035%=      5-min Rain = 0
KSM2 011445Z 26006KT 28/11 A2995 RMK A01 T02840114  RH  035%=      5-min Rain = 0
KSM2 011446Z 26010KT 29/11 A2995 RMK A01 T02860106  RH  033%=      5-min Rain = 0
KSM2 011447Z 26011KT 29/10 A2995 RMK A01 T02880102  RH  031%=      5-min Rain = 0
KSM2 011448Z 27010KT 29/10 A2995 RMK A01 T02880100  RH  031%=      5-min Rain = 0
KSM2 011449Z 26010KT 29/10 A2995 RMK A01 T02860097  RH  031%=      5-min Rain = 0
KSM2 011450Z 26009KT 29/10 A2995 RMK A01 T02860100  RH  031%=      5-min Rain = 0
KSM2 011451Z 26009KT 29/10 A2995 RMK A01 T02870101  RH  031%=      5-min Rain = 0
KSM2 011452Z 27008KT 29/10 A2995 RMK A01 T02880103  RH  032%=      5-min Rain = 0
KSM2 011453Z 27008KT 29/10 A2995 RMK A01 T02890103  RH  031%=      5-min Rain = 0
KSM2 011454Z 27008KT 29/10 A2995 RMK A01 T02910097  RH  030%=      5-min Rain = 0
KSM2 011455Z 27008KT 29/10 A2995 RMK A01 T02890099  RH  030%=      5-min Rain = 0
KSM2 011456Z 27007KT 29/09 A2995 RMK A01 T02890093  RH  029%=      5-min Rain = 0
KSM2 011457Z 26006KT 29/10 A2995 RMK A01 T02890096  RH  030%=      5-min Rain = 0
KSM2 011458Z 25007KT 29/10 A2995 RMK A01 T02900101  RH  031%=      5-min Rain = 0
KSM2 011459Z 25008KT 29/10 A2995 RMK A01 T02910101  RH  031%=      5-min Rain = 0
KSM2 011500Z 25008KT 29/10 A2996 RMK A01 T02920096  RH  029%=      5-min Rain = 0
KSM2 011501Z 25007KT 29/09 A2996 RMK A01 T02890092  RH  029%=      5-min Rain = 0
KSM2 011502Z 25007KT 29/09 A2995 RMK A01 T02880090  RH  029%=      5-min Rain = 0
KSM2 011503Z 25009KT 29/09 A2995 RMK A01 T02890086  RH  028%=      5-min Rain = 0
KSM2 011504Z 25007KT 29/08 A2995 RMK A01 T02900082  RH  027%=      5-min Rain = 0
KSM2 011505Z 24006KT 29/09 A2995 RMK A01 T02900086  RH  028%=      5-min Rain = 0
KSM2 011506Z 26007KT 29/09 A2995 RMK A01 T02900087  RH  028%=      5-min Rain = 0
KSM2 011507Z 26008KT 29/09 A2995 RMK A01 T02910086  RH  028%=      5-min Rain = 0
KSM2 011508Z 27008KT 29/08 A2995 RMK A01 T02920083  RH  027%=      5-min Rain = 0
KSM2 011509Z 28008KT 29/08 A2995 RMK A01 T02930080  RH  026%=      5-min Rain = 0
KSM2 011510Z 29008KT 30/08 A2995 RMK A01 T02950082  RH  026%=      5-min Rain = 0
KSM2 011511Z 28007KT 30/09 A2995 RMK A01 T02960085  RH  027%=      5-min Rain = 0
KSM2 011512Z 28006KT 30/08 A2995 RMK A01 T02970083  RH  026%=      5-min Rain = 0
KSM2 011513Z 29007KT 30/09 A2995 RMK A01 T02950085  RH  027%=      5-min Rain = 0
KSM2 011514Z 29008KT 30/08 A2995 RMK A01 T02970081  RH  026%=      5-min Rain = 0
KSM2 011515Z 28007KT 30/08 A2995 RMK A01 T02990080  RH  025%=      5-min Rain = 0
KSM2 011516Z 27007KT 30/08 A2995 RMK A01 T02990084  RH  026%=      5-min Rain = 0
KSM2 011517Z 26007KT 30/09 A2995 RMK A01 T02990086  RH  026%=      5-min Rain = 0
KSM2 011518Z 25009KT 30/08 A2995 RMK A01 T03010077  RH  025%=      5-min Rain = 0
KSM2 011519Z 26007KT 30/08 A2995 RMK A01 T03020078  RH  025%=      5-min Rain = 0
KSM2 011520Z 27008KT 30/07 A2995 RMK A01 T03020072  RH  024%=      5-min Rain = 0
KSM2 011521Z 27007KT 30/07 A2995 RMK A01 T03010071  RH  024%=      5-min Rain = 0
KSM2 011522Z 28008KT 30/07 A2995 RMK A01 T03000071  RH  024%=      5-min Rain = 0
KSM2 011523Z 28008KT 30/07 A2995 RMK A01 T03010070  RH  023%=      5-min Rain = 0
KSM2 011524Z 27010KT 30/07 A2995 RMK A01 T03040074  RH  024%=      5-min Rain = 0
KSM2 011525Z 28008KT 30/07 A2995 RMK A01 T03040068  RH  023%=      5-min Rain = 0
KSM2 011526Z 29008KT 30/07 A2995 RMK A01 T03030070  RH  023%=      5-min Rain = 0
KSM2 011527Z 28007KT 30/07 A2995 RMK A01 T03030069  RH  023%=      5-min Rain = 0
KSM2 011528Z 27007KT 30/08 A2995 RMK A01 T03040075  RH  024%=      5-min Rain = 0
KSM2 011529Z 27008KT 31/08 A2995 RMK A01 T03070076  RH  024%=      5-min Rain = 0
KSM2 011530Z 27007KT 31/07 A2995 RMK A01 T03090072  RH  023%=      5-min Rain = 0
KSM2 011531Z 27008KT 31/07 A2995 RMK A01 T03070068  RH  022%=      5-min Rain = 0
KSM2 011532Z 27008KT 31/07 A2995 RMK A01 T03050068  RH  023%=      5-min Rain = 0
KSM2 011533Z 26008KT 31/07 A2995 RMK A01 T03050066  RH  022%=      5-min Rain = 0
KSM2 011534Z 27008KT 31/07 A2995 RMK A01 T03050066  RH  022%=      5-min Rain = 0
KSM2 011535Z 27007KT 31/06 A2995 RMK A01 T03050064  RH  022%=      5-min Rain = 0
KSM2 011536Z 27008KT 31/07 A2995 RMK A01 T03060065  RH  022%=      5-min Rain = 0
KSM2 011537Z 28006KT 31/07 A2995 RMK A01 T03070066  RH  022%=      5-min Rain = 0
KSM2 011538Z 27007KT 31/07 A2995 RMK A01 T03090071  RH  023%=      5-min Rain = 0
KSM2 011539Z 26009KT 31/06 A2995 RMK A01 T03100060  RH  021%=      5-min Rain = 0
KSM2 011540Z 26007KT 31/06 A2995 RMK A01 T03090060  RH  021%=      5-min Rain = 0
KSM2 011541Z 26006KT 31/07 A2995 RMK A01 T03100065  RH  022%=      5-min Rain = 0
KSM2 011542Z 27005KT 31/07 A2995 RMK A01 T03120066  RH  021%=      5-min Rain = 0
KSM2 011543Z 28005KT 31/07 A2995 RMK A01 T03110067  RH  022%=      5-min Rain = 0
KSM2 011544Z 27006KT 31/07 A2995 RMK A01 T03110066  RH  022%=      5-min Rain = 0
KSM2 011545Z 27006KT 31/06 A2995 RMK A01 T03120061  RH  021%=      5-min Rain = 0
KSM2 011546Z 25007KT 31/07 A2995 RMK A01 T03130067  RH  021%=      5-min Rain = 0
KSM2 011547Z 25005KT 31/06 A2995 RMK A01 T03130059  RH  020%=      5-min Rain = 0
KSM2 011548Z 26007KT 31/06 A2995 RMK A01 T03120059  RH  020%=      5-min Rain = 0
KSM2 011549Z 27005KT 31/05 A2995 RMK A01 T03130053  RH  020%=      5-min Rain = 0
KSM2 011550Z 26006KT 31/05 A2995 RMK A01 T03130054  RH  020%=      5-min Rain = 0
KSM2 011551Z 28006KT 31/05 A2995 RMK A01 T03140049  RH  019%=      5-min Rain = 0
KSM2 011552Z 27006KT 31/06 A2995 RMK A01 T03130056  RH  020%=      5-min Rain = 0
KSM2 011553Z 27006KT 32/07 A2995 RMK A01 T03170066  RH  021%=      5-min Rain = 0
KSM2 011554Z 26006KT 32/06 A2995 RMK A01 T03210063  RH  020%=      5-min Rain = 0
KSM2 011555Z 24007KT 32/06 A2995 RMK A01 T03220057  RH  019%=      5-min Rain = 0
KSM2 011556Z 24004KT 32/05 A2995 RMK A01 T03190052  RH  019%=      5-min Rain = 0
KSM2 011557Z 26008KT 32/06 A2995 RMK A01 T03160055  RH  019%=      5-min Rain = 0
KSM2 011558Z 27006KT 32/06 A2995 RMK A01 T03160055  RH  019%=      5-min Rain = 0
KSM2 011559Z 26005KT 32/06 A2995 RMK A01 T03170055  RH  019%=      5-min Rain = 0
KSM2 011600Z 26007KT 32/06 A2995 RMK A01 T03180055  RH  019%=      5-min Rain = 0
KSM2 011601Z 27005KT 32/05 A2995 RMK A01 T03200053  RH  019%=      5-min Rain = 0
KSM2 011602Z 27004KT 32/05 A2995 RMK A01 T03190052  RH  019%=      5-min Rain = 0
KSM2 011603Z 24003KT 32/06 A2995 RMK A01 T03180059  RH  020%=      5-min Rain = 0
KSM2 011604Z 25005KT 32/06 A2995 RMK A01 T03180058  RH  020%=      5-min Rain = 0
KSM2 011605Z 26006KT 32/06 A2995 RMK A01 T03190057  RH  019%=      5-min Rain = 0
KSM2 011606Z 27004KT 32/05 A2995 RMK A01 T03210052  RH  018%=      5-min Rain = 0
KSM2 011607Z 28003KT 32/05 A2995 RMK A01 T03200052  RH  019%=      5-min Rain = 0
KSM2 011608Z 28005KT 32/06 A2995 RMK A01 T03220061  RH  020%=      5-min Rain = 0
KSM2 011609Z 27005KT 32/06 A2995 RMK A01 T03230057  RH  019%=      5-min Rain = 0
KSM2 011610Z 28004KT 32/05 A2995 RMK A01 T03230054  RH  019%=      5-min Rain = 0
KSM2 011611Z 28004KT 32/05 A2995 RMK A01 T03220054  RH  019%=      5-min Rain = 0
KSM2 011612Z 26003KT 32/06 A2995 RMK A01 T03220056  RH  019%=      5-min Rain = 0
KSM2 011613Z 30004KT 32/06 A2995 RMK A01 T03220057  RH  019%=      5-min Rain = 0
KSM2 011614Z 28004KT 32/06 A2995 RMK A01 T03230058  RH  019%=      5-min Rain = 0
KSM2 011615Z 27004KT 32/06 A2995 RMK A01 T03240062  RH  019%=      5-min Rain = 0
KSM2 011616Z 23004KT 33/06 A2995 RMK A01 T03260060  RH  019%=      5-min Rain = 0
KSM2 011617Z 25007KT 33/06 A2995 RMK A01 T03260060  RH  019%=      5-min Rain = 0
KSM2 011618Z 25005KT 33/06 A2995 RMK A01 T03270058  RH  019%=      5-min Rain = 0
KSM2 011619Z 23004KT 33/06 A2995 RMK A01 T03250057  RH  019%=      5-min Rain = 0
KSM2 011620Z 23004KT 32/06 A2995 RMK A01 T03240056  RH  019%=      5-min Rain = 0
KSM2 011621Z 23005KT 32/06 A2995 RMK A01 T03240055  RH  019%=      5-min Rain = 0
KSM2 011622Z 24004KT 33/06 A2995 RMK A01 T03250058  RH  019%=      5-min Rain = 0
KSM2 011623Z 21004KT 33/06 A2995 RMK A01 T03260059  RH  019%=      5-min Rain = 0
KSM2 011624Z 22004KT 33/06 A2995 RMK A01 T03270056  RH  018%=      5-min Rain = 0
KSM2 011625Z 20002KT 33/05 A2995 RMK A01 T03260052  RH  018%=      5-min Rain = 0
KSM2 011626Z 23003KT 33/06 A2995 RMK A01 T03250059  RH  019%=      5-min Rain = 0
KSM2 011627Z 25005KT 33/06 A2995 RMK A01 T03260058  RH  019%=      5-min Rain = 0
KSM2 011628Z 22006KT 33/06 A2995 RMK A01 T03270058  RH  019%=      5-min Rain = 0
KSM2 011629Z 20004KT 33/06 A2995 RMK A01 T03270058  RH  019%=      5-min Rain = 0
KSM2 011630Z 19003KT 33/06 A2995 RMK A01 T03260057  RH  019%=      5-min Rain = 0
KSM2 011631Z 20003KT 33/07 A2995 RMK A01 T03260067  RH  020%=      5-min Rain = 0
KSM2 011632Z 27005KT 33/06 A2995 RMK A01 T03260059  RH  019%=      5-min Rain = 0
KSM2 011633Z 26005KT 33/06 A2995 RMK A01 T03270055  RH  018%=      5-min Rain = 0
KSM2 011634Z 24003KT 33/06 A2995 RMK A01 T03270055  RH  018%=      5-min Rain = 0
KSM2 011635Z 26004KT 33/06 A2995 RMK A01 T03280057  RH  018%=      5-min Rain = 0
KSM2 011636Z 25003KT 33/06 A2995 RMK A01 T03280055  RH  018%=      5-min Rain = 0
KSM2 011637Z 26003KT 33/06 A2995 RMK A01 T03280059  RH  019%=      5-min Rain = 0
KSM2 011638Z 25003KT 33/06 A2995 RMK A01 T03280056  RH  018%=      5-min Rain = 0
KSM2 011639Z 23004KT 33/05 A2995 RMK A01 T03280054  RH  018%=      5-min Rain = 0
KSM2 011640Z 21005KT 33/06 A2995 RMK A01 T03280060  RH  019%=      5-min Rain = 0
KSM2 011641Z 20002KT 33/05 A2995 RMK A01 T03280051  RH  018%=      5-min Rain = 0
KSM2 011642Z 22003KT 33/06 A2995 RMK A01 T03270063  RH  019%=      5-min Rain = 0
KSM2 011643Z 26003KT 33/07 A2995 RMK A01 T03260071  RH  021%=      5-min Rain = 0
KSM2 011644Z 26004KT 33/05 A2995 RMK A01 T03270051  RH  018%=      5-min Rain = 0
KSM2 011645Z 26002KT 33/05 A2995 RMK A01 T03270050  RH  018%=      5-min Rain = 0
KSM2 011646Z 22003KT 33/06 A2995 RMK A01 T03270057  RH  019%=      5-min Rain = 0
KSM2 011647Z 25003KT 33/06 A2995 RMK A01 T03270055  RH  018%=      5-min Rain = 0
KSM2 011648Z 22003KT 33/06 A2995 RMK A01 T03280060  RH  019%=      5-min Rain = 0
KSM2 011649Z 22003KT 33/06 A2995 RMK A01 T03300057  RH  018%=      5-min Rain = 0
KSM2 011650Z 23002KT 33/05 A2995 RMK A01 T03300053  RH  018%=      5-min Rain = 0
KSM2 011651Z 24003KT 33/05 A2995 RMK A01 T03300054  RH  018%=      5-min Rain = 0
KSM2 011652Z 24005KT 33/05 A2995 RMK A01 T03300054  RH  018%=      5-min Rain = 0
KSM2 011653Z 23005KT 33/05 A2995 RMK A01 T03320052  RH  017%=      5-min Rain = 0
KSM2 011654Z 24004KT 33/06 A2995 RMK A01 T03320055  RH  018%=      5-min Rain = 0
KSM2 011655Z 26003KT 33/05 A2995 RMK A01 T03310052  RH  017%=      5-min Rain = 0
KSM2 011656Z 27003KT 33/06 A2995 RMK A01 T03320059  RH  018%=      5-min Rain = 0
KSM2 011657Z 23001KT 34/05 A2995 RMK A01 T03350053  RH  017%=      5-min Rain = 0
KSM2 011658Z 22004KT 34/05 A2995 RMK A01 T03360053  RH  017%=      5-min Rain = 0
KSM2 011659Z 24003KT 34/06 A2995 RMK A01 T03360055  RH  017%=      5-min Rain = 0
KSM2 011700Z 25004KT 34/05 A2995 RMK A01 T03370051  RH  017%=      5-min Rain = 0
KSM2 011701Z 24005KT 34/06 A2995 RMK A01 T03380059  RH  018%=      5-min Rain = 0
KSM2 011702Z 24004KT 34/06 A2995 RMK A01 T03400056  RH  017%=      5-min Rain = 0
KSM2 011703Z 20001KT 34/06 A2995 RMK A01 T03400056  RH  017%=      5-min Rain = 0
KSM2 011704Z 21000KT 34/06 A2995 RMK A01 T03390063  RH  018%=      5-min Rain = 0
KSM2 011705Z 28001KT 34/06 A2995 RMK A01 T03410061  RH  018%=      5-min Rain = 0
KSM2 011706Z 25003KT 34/06 A2995 RMK A01 T03440058  RH  017%=      5-min Rain = 0
KSM2 011707Z 24004KT 34/06 A2995 RMK A01 T03440056  RH  017%=      5-min Rain = 0
KSM2 011708Z 26005KT 34/06 A2995 RMK A01 T03420055  RH  017%=      5-min Rain = 0
KSM2 011709Z 27004KT 34/05 A2995 RMK A01 T03400049  RH  016%=      5-min Rain = 0
KSM2 011710Z 29003KT 34/05 A2995 RMK A01 T03390051  RH  017%=      5-min Rain = 0
KSM2 011711Z 31004KT 34/05 A2995 RMK A01 T03390052  RH  017%=      5-min Rain = 0
KSM2 011712Z 28005KT 34/05 A2995 RMK A01 T03410053  RH  017%=      5-min Rain = 0
KSM2 011713Z 28002KT 34/05 A2995 RMK A01 T03420050  RH  016%=      5-min Rain = 0
KSM2 011714Z 22003KT 34/05 A2995 RMK A01 T03410053  RH  017%=      5-min Rain = 0
KSM2 011715Z 19006KT 34/06 A2995 RMK A01 T03410062  RH  018%=      5-min Rain = 0
KSM2 011716Z 18006KT 34/06 A2995 RMK A01 T03420058  RH  017%=      5-min Rain = 0
KSM2 011717Z 16005KT 34/05 A2995 RMK A01 T03410054  RH  017%=      5-min Rain = 0
KSM2 011718Z 17006KT 34/06 A2995 RMK A01 T03410064  RH  018%=      5-min Rain = 0
KSM2 011719Z 15004KT 34/06 A2995 RMK A01 T03430064  RH  018%=      5-min Rain = 0
KSM2 011720Z 23003KT 35/06 A2995 RMK A01 T03460056  RH  017%=      5-min Rain = 0
KSM2 011721Z 25005KT 35/06 A2995 RMK A01 T03460055  RH  016%=      5-min Rain = 0
KSM2 011722Z 25005KT 35/05 A2995 RMK A01 T03450052  RH  016%=      5-min Rain = 0
KSM2 011723Z 24004KT 34/06 A2995 RMK A01 T03440055  RH  017%=      5-min Rain = 0
KSM2 011724Z 22003KT 34/05 A2995 RMK A01 T03440051  RH  016%=      5-min Rain = 0
KSM2 011725Z 22004KT 34/06 A2995 RMK A01 T03430056  RH  017%=      5-min Rain = 0
KSM2 011726Z 19007KT 34/06 A2995 RMK A01 T03430057  RH  017%=      5-min Rain = 0
KSM2 011727Z 17006KT 34/06 A2995 RMK A01 T03430057  RH  017%=      5-min Rain = 0
KSM2 011728Z 20008KT 35/06 A2995 RMK A01 T03450064  RH  018%=      5-min Rain = 0
KSM2 011729Z 19006KT 34/06 A2995 RMK A01 T03440060  RH  017%=      5-min Rain = 0
KSM2 011730Z 19007KT 34/06 A2995 RMK A01 T03430056  RH  017%=      5-min Rain = 0
KSM2 011731Z 19007KT 34/06 A2995 RMK A01 T03420057  RH  017%=      5-min Rain = 0
KSM2 011732Z 18006KT 34/06 A2995 RMK A01 T03410056  RH  017%=      5-min Rain = 0
KSM2 011733Z 17004KT 34/05 A2995 RMK A01 T03410053  RH  017%=      5-min Rain = 0
KSM2 011734Z 19007KT 34/06 A2995 RMK A01 T03410056  RH  017%=      5-min Rain = 0
KSM2 011735Z 16007KT 34/06 A2995 RMK A01 T03420058  RH  017%=      5-min Rain = 0
KSM2 011736Z 16006KT 34/05 A2995 RMK A01 T03430052  RH  016%=      5-min Rain = 0
KSM2 011737Z 15005KT 34/05 A2995 RMK A01 T03440051  RH  016%=      5-min Rain = 0
KSM2 011738Z 16004KT 34/05 A2995 RMK A01 T03440054  RH  016%=      5-min Rain = 0
KSM2 011739Z 24004KT 35/06 A2995 RMK A01 T03450064  RH  018%=      5-min Rain = 0
KSM2 011740Z 23007KT 35/07 A2995 RMK A01 T03480068  RH  018%=      5-min Rain = 0
KSM2 011741Z 25009KT 35/05 A2995 RMK A01 T03490054  RH  016%=      5-min Rain = 0
KSM2 011742Z 24005KT 35/05 A2995 RMK A01 T03470046  RH  015%=      5-min Rain = 0
KSM2 011743Z 22006KT 34/05 A2995 RMK A01 T03440049  RH  016%=      5-min Rain = 0
KSM2 011744Z 23005KT 34/04 A2995 RMK A01 T03420044  RH  016%=      5-min Rain = 0
KSM2 011745Z 26009KT 34/05 A2995 RMK A01 T03420054  RH  017%=      5-min Rain = 0
KSM2 011746Z 27007KT 35/05 A2995 RMK A01 T03470049  RH  016%=      5-min Rain = 0
KSM2 011747Z 26007KT 35/05 A2995 RMK A01 T03490054  RH  016%=      5-min Rain = 0
KSM2 011748Z 27006KT 35/05 A2995 RMK A01 T03500049  RH  015%=      5-min Rain = 0
KSM2 011749Z 26004KT 35/05 A2995 RMK A01 T03500049  RH  015%=      5-min Rain = 0
KSM2 011750Z 26003KT 35/04 A2995 RMK A01 T03490043  RH  015%=      5-min Rain = 0
KSM2 011751Z 28002KT 35/05 A2995 RMK A01 T03460047  RH  015%=      5-min Rain = 0
KSM2 011752Z 25001KT 35/05 A2995 RMK A01 T03460053  RH  016%=      5-min Rain = 0
KSM2 011753Z 22002KT 35/05 A2995 RMK A01 T03470045  RH  015%=      5-min Rain = 0
KSM2 011754Z 24005G11KT 35/05 A2995 RMK A01 T03460048  RH  016%=      5-min Rain = 0
KSM2 011755Z 24008KT 35/06 A2995 RMK A01 T03460055  RH  016%=      5-min Rain = 0
KSM2 011756Z 26007KT 35/06 A2995 RMK A01 T03490056  RH  016%=      5-min Rain = 0
KSM2 011757Z 26005KT 35/06 A2995 RMK A01 T03510057  RH  016%=      5-min Rain = 0
KSM2 011758Z 24004KT 36/05 A2995 RMK A01 T03550053  RH  015%=      5-min Rain = 0
KSM2 011759Z 25003KT 36/05 A2995 RMK A01 T03550053  RH  015%=      5-min Rain = 0
KSM2 011800Z 22007KT 35/05 A2995 RMK A01 T03530051  RH  015%=      5-min Rain = 0
KSM2 011801Z 20008KT 35/07 A2995 RMK A01 T03500065  RH  017%=      5-min Rain = 0
KSM2 011802Z 21010KT 35/08 A2995 RMK A01 T03510079  RH  019%=      5-min Rain = 0
KSM2 011803Z 21008KT 35/06 A2995 RMK A01 T03510063  RH  017%=      5-min Rain = 0
KSM2 011804Z 21008KT 35/06 A2995 RMK A01 T03480060  RH  017%=      5-min Rain = 0
KSM2 011805Z 21008KT 35/07 A2995 RMK A01 T03470070  RH  018%=      5-min Rain = 0
KSM2 011806Z 22007KT 35/08 A2995 RMK A01 T03510075  RH  018%=      5-min Rain = 0
KSM2 011807Z 20006KT 35/05 A2995 RMK A01 T03500054  RH  016%=      5-min Rain = 0
KSM2 011808Z 18004KT 35/06 A2995 RMK A01 T03490057  RH  016%=      5-min Rain = 0
KSM2 011809Z 17003KT 35/05 A2995 RMK A01 T03500054  RH  016%=      5-min Rain = 0
KSM2 011810Z 19005KT 35/07 A2995 RMK A01 T03530068  RH  017%=      5-min Rain = 0
KSM2 011811Z 17005KT 36/06 A2995 RMK A01 T03550063  RH  017%=      5-min Rain = 0
KSM2 011812Z 18002KT 36/05 A2994 RMK A01 T03550050  RH  015%=      5-min Rain = 0
KSM2 011813Z 23007KT 36/06 A2995 RMK A01 T03560057  RH  016%=      5-min Rain = 0
KSM2 011814Z 23005KT 36/05 A2994 RMK A01 T03550048  RH  015%=      5-min Rain = 0
KSM2 011815Z 24007KT 35/05 A2994 RMK A01 T03530049  RH  015%=      5-min Rain = 0
KSM2 011816Z 23006KT 35/05 A2994 RMK A01 T03530051  RH  015%=      5-min Rain = 0
KSM2 011817Z 20006KT 35/06 A2994 RMK A01 T03530057  RH  016%=      5-min Rain = 0
KSM2 011818Z 17004KT 35/06 A2994 RMK A01 T03530061  RH  016%=      5-min Rain = 0
KSM2 011819Z 15002KT 36/05 A2994 RMK A01 T03550047  RH  015%=      5-min Rain = 0
KSM2 011820Z 17002KT 36/05 A2994 RMK A01 T03560047  RH  015%=      5-min Rain = 0
KSM2 011821Z 17004KT 36/05 A2994 RMK A01 T03560051  RH  015%=      5-min Rain = 0
KSM2 011822Z 23008KT 36/06 A2994 RMK A01 T03570057  RH  016%=      5-min Rain = 0
KSM2 011823Z 24007KT 36/05 A2994 RMK A01 T03560045  RH  014%=      5-min Rain = 0
KSM2 011824Z 23010KT 36/05 A2994 RMK A01 T03550049  RH  015%=      5-min Rain = 0
KSM2 011825Z 21007KT 35/05 A2994 RMK A01 T03540045  RH  015%=      5-min Rain = 0
KSM2 011826Z 14005KT 35/04 A2994 RMK A01 T03510037  RH  014%=      5-min Rain = 0
KSM2 011827Z 19004KT 35/04 A2994 RMK A01 T03490040  RH  014%=      5-min Rain = 0
KSM2 011828Z 24006KT 35/05 A2994 RMK A01 T03520053  RH  016%=      5-min Rain = 0
KSM2 011829Z 24005KT 36/05 A2994 RMK A01 T03590054  RH  015%=      5-min Rain = 0
KSM2 011830Z 21003KT 36/07 A2994 RMK A01 T03610065  RH  016%=      5-min Rain = 0
KSM2 011831Z 27004KT 36/05 A2994 RMK A01 T03600045  RH  014%=      5-min Rain = 0
KSM2 011832Z 28005KT 36/04 A2994 RMK A01 T03580044  RH  014%=      5-min Rain = 0
KSM2 011833Z 27005KT 36/04 A2994 RMK A01 T03590042  RH  014%=      5-min Rain = 0
KSM2 011834Z 26006KT 36/04 A2994 RMK A01 T03590044  RH  014%=      5-min Rain = 0
KSM2 011835Z 27003KT 36/04 A2994 RMK A01 T03570040  RH  014%=      5-min Rain = 0
KSM2 011836Z 25003KT 36/05 A2994 RMK A01 T03570046  RH  015%=      5-min Rain = 0
KSM2 011837Z 22005G10KT 36/05 A2994 RMK A01 T03570045  RH  014%=      5-min Rain = 0
KSM2 011838Z 23008KT 36/05 A2994 RMK A01 T03570054  RH  015%=      5-min Rain = 0
KSM2 011839Z 21007KT 36/06 A2994 RMK A01 T03580055  RH  015%=      5-min Rain = 0
KSM2 011840Z 21010KT 36/06 A2994 RMK A01 T03590061  RH  016%=      5-min Rain = 0
KSM2 011841Z 22010KT 36/06 A2994 RMK A01 T03600059  RH  016%=      5-min Rain = 0
KSM2 011842Z 24011KT 36/06 A2994 RMK A01 T03620057  RH  015%=      5-min Rain = 0
KSM2 011843Z 24010KT 37/06 A2994 RMK A01 T03660059  RH  015%=      5-min Rain = 0
KSM2 011844Z 23011KT 37/05 A2994 RMK A01 T03700047  RH  014%=      5-min Rain = 0
KSM2 011845Z 24008KT 37/05 A2994 RMK A01 T03660054  RH  015%=      5-min Rain = 0
KSM2 011846Z 24009KT 37/05 A2994 RMK A01 T03670048  RH  014%=      5-min Rain = 0
KSM2 011847Z 22010KT 37/04 A2994 RMK A01 T03670040  RH  013%=      5-min Rain = 0
KSM2 011848Z 22008KT 36/05 A2994 RMK A01 T03610048  RH  014%=      5-min Rain = 0
KSM2 011849Z 24007KT 36/03 A2994 RMK A01 T03600032  RH  013%=      5-min Rain = 0
KSM2 011850Z 25005KT 36/03 A2994 RMK A01 T03570025  RH  013%=      5-min Rain = 0
KSM2 011851Z 22006KT 36/03 A2994 RMK A01 T03560026  RH  013%=      5-min Rain = 0
KSM2 011852Z 22006KT 36/03 A2994 RMK A01 T03560029  RH  013%=      5-min Rain = 0
KSM2 011853Z 23004KT 36/02 A2994 RMK A01 T03550018  RH  012%=      5-min Rain = 0
KSM2 011854Z 24004KT 36/02 A2994 RMK A01 T03560024  RH  013%=      5-min Rain = 0
KSM2 011855Z 24004KT 36/02 A2994 RMK A01 T03590021  RH  012%=      5-min Rain = 0
KSM2 011856Z 18002KT 36/03 A2994 RMK A01 T03590033  RH  013%=      5-min Rain = 0
KSM2 011857Z 21003KT 36/03 A2994 RMK A01 T03600029  RH  013%=      5-min Rain = 0
KSM2 011858Z 20002KT 36/02 A2994 RMK A01 T03610023  RH  012%=      5-min Rain = 0
KSM2 011859Z 32002KT 36/02 A2993 RMK A01 T03610022  RH  012%=      5-min Rain = 0
KSM2 011900Z 34005KT 36/03 A2993 RMK A01 T03620030  RH  013%=      5-min Rain = 0
KSM2 011901Z 34004KT 36/02 A2993 RMK A01 T03610024  RH  012%=      5-min Rain = 0
KSM2 011902Z 01003KT 36/03 A2993 RMK A01 T03590027  RH  013%=      5-min Rain = 0
KSM2 011903Z 03003KT 36/02 A2993 RMK A01 T03590024  RH  012%=      5-min Rain = 0
KSM2 011904Z 01003KT 36/03 A2993 RMK A01 T03580030  RH  013%=      5-min Rain = 0
KSM2 011905Z 34001KT 36/03 A2993 RMK A01 T03590030  RH  013%=      5-min Rain = 0
KSM2 011906Z 27002KT 36/03 A2993 RMK A01 T03600029  RH  013%=      5-min Rain = 0
KSM2 011907Z 27005KT 36/04 A2993 RMK A01 T03610038  RH  013%=      5-min Rain = 0
KSM2 011908Z 27009KT 36/04 A2993 RMK A01 T03640043  RH  014%=      5-min Rain = 0
KSM2 011909Z 28006KT 37/04 A2993 RMK A01 T03650039  RH  013%=      5-min Rain = 0
KSM2 011910Z 29009KT 36/04 A2993 RMK A01 T03640038  RH  013%=      5-min Rain = 0
KSM2 011911Z 28008KT 36/03 A2993 RMK A01 T03640032  RH  013%=      5-min Rain = 0
KSM2 011912Z 27006KT 36/03 A2993 RMK A01 T03610029  RH  013%=      5-min Rain = 0
KSM2 011913Z 26006KT 36/03 A2993 RMK A01 T03590032  RH  013%=      5-min Rain = 0
KSM2 011914Z 26005KT 36/03 A2993 RMK A01 T03600032  RH  013%=      5-min Rain = 0
KSM2 011915Z 26007KT 36/04 A2993 RMK A01 T03620037  RH  013%=      5-min Rain = 0
KSM2 011916Z 28005KT 37/03 A2993 RMK A01 T03660029  RH  012%=      5-min Rain = 0
KSM2 011917Z 31005KT 37/03 A2993 RMK A01 T03660030  RH  012%=      5-min Rain = 0
KSM2 011918Z 27005KT 36/04 A2993 RMK A01 T03640035  RH  013%=      5-min Rain = 0
KSM2 011919Z 25008KT 37/05 A2993 RMK A01 T03670047  RH  014%=      5-min Rain = 0
KSM2 011920Z 25005KT 37/04 A2993 RMK A01 T03660039  RH  013%=      5-min Rain = 0
KSM2 011921Z 27005KT 36/04 A2993 RMK A01 T03630043  RH  014%=      5-min Rain = 0
KSM2 011922Z 29004KT 37/04 A2993 RMK A01 T03650039  RH  013%=      5-min Rain = 0
KSM2 011923Z 27004KT 37/04 A2993 RMK A01 T03650041  RH  013%=      5-min Rain = 0
KSM2 011924Z 22004KT 37/04 A2993 RMK A01 T03660037  RH  013%=      5-min Rain = 0
KSM2 011925Z 22003KT 37/05 A2993 RMK A01 T03650047  RH  014%=      5-min Rain = 0
KSM2 011926Z 25003KT 37/03 A2993 RMK A01 T03650033  RH  013%=      5-min Rain = 0
KSM2 011927Z 28001KT 36/04 A2993 RMK A01 T03640036  RH  013%=      5-min Rain = 0
KSM2 011928Z 29002KT 36/03 A2993 RMK A01 T03640029  RH  012%=      5-min Rain = 0
KSM2 011929Z 26002KT 37/03 A2993 RMK A01 T03650026  RH  012%=      5-min Rain = 0
KSM2 011930Z 22003KT 37/03 A2993 RMK A01 T03650031  RH  013%=      5-min Rain = 0
KSM2 011931Z 22007KT 37/05 A2993 RMK A01 T03670045  RH  014%=      5-min Rain = 0
KSM2 011932Z 21008KT 37/04 A2993 RMK A01 T03710044  RH  013%=      5-min Rain = 0
KSM2 011933Z 17007KT 37/06 A2993 RMK A01 T03710059  RH  015%=      5-min Rain = 0
KSM2 011934Z 17008KT 37/04 A2992 RMK A01 T03730039  RH  013%=      5-min Rain = 0
KSM2 011935Z 24006KT 37/03 A2993 RMK A01 T03700032  RH  012%=      5-min Rain = 0
KSM2 011936Z 23004KT 37/02 A2993 RMK A01 T03650021  RH  012%=      5-min Rain = 0
KSM2 011937Z 19003KT 36/03 A2993 RMK A01 T03630025  RH  012%=      5-min Rain = 0
KSM2 011938Z 22003KT 36/02 A2992 RMK A01 T03630022  RH  012%=      5-min Rain = 0
KSM2 011939Z 23006KT 36/03 A2992 RMK A01 T03630030  RH  013%=      5-min Rain = 0
KSM2 011940Z 21005KT 37/03 A2992 RMK A01 T03670026  RH  012%=      5-min Rain = 0
KSM2 011941Z 18004KT 37/02 A2992 RMK A01 T03670020  RH  011%=      5-min Rain = 0
KSM2 011942Z 14001KT 37/02 A2992 RMK A01 T03660016  RH  011%=      5-min Rain = 0
KSM2 011943Z 20001KT 37/02 A2992 RMK A01 T03650024  RH  012%=      5-min Rain = 0
KSM2 011944Z 20002KT 37/03 A2992 RMK A01 T03660028  RH  012%=      5-min Rain = 0
KSM2 011945Z 22003KT 37/02 A2992 RMK A01 T03670024  RH  012%=      5-min Rain = 0
KSM2 011946Z 22002KT 37/01 A2992 RMK A01 T03660014  RH  011%=      5-min Rain = 0
KSM2 011947Z 22000KT 37/02 A2992 RMK A01 T03650019  RH  011%=      5-min Rain = 0
KSM2 011948Z 33003KT 37/02 A2992 RMK A01 T03680024  RH  012%=      5-min Rain = 0
KSM2 011949Z 34004KT 37/02 A2992 RMK A01 T03700022  RH  011%=      5-min Rain = 0
KSM2 011950Z 36003KT 37/02 A2992 RMK A01 T03720022  RH  011%=      5-min Rain = 0
KSM2 011951Z 02002KT 37/02 A2992 RMK A01 T03720020  RH  011%=      5-min Rain = 0
KSM2 011952Z 35001KT 37/02 A2992 RMK A01 T03710020  RH  011%=      5-min Rain = 0
KSM2 011953Z 35002KT 37/02 A2992 RMK A01 T03710019  RH  011%=      5-min Rain = 0
KSM2 011954Z 27002KT 37/02 A2992 RMK A01 T03700023  RH  012%=      5-min Rain = 0
KSM2 011955Z 27004KT 37/02 A2992 RMK A01 T03690016  RH  011%=      5-min Rain = 0
KSM2 011956Z 24009KT 37/03 A2992 RMK A01 T03680027  RH  012%=      5-min Rain = 0
KSM2 011957Z 26006KT 37/02 A2992 RMK A01 T03680022  RH  012%=      5-min Rain = 0
KSM2 011958Z 28007KT 37/03 A2992 RMK A01 T03680026  RH  012%=      5-min Rain = 0
KSM2 011959Z 28006KT 37/02 A2991 RMK A01 T03680017  RH  011%=      5-min Rain = 0
KSM2 012000Z 27007KT 37/02 A2991 RMK A01 T03660022  RH  012%=      5-min Rain = 0
KSM2 012001Z 27008KT 37/02 A2991 RMK A01 T03660022  RH  012%=      5-min Rain = 0
KSM2 012002Z 28007KT 37/03 A2991 RMK A01 T03680027  RH  012%=      5-min Rain = 0
KSM2 012003Z 28008KT 37/03 A2991 RMK A01 T03710026  RH  012%=      5-min Rain = 0
KSM2 012004Z 30008KT 37/02 A2992 RMK A01 T03720023  RH  011%=      5-min Rain = 0
KSM2 012005Z 28006KT 37/03 A2992 RMK A01 T03720027  RH  012%=      5-min Rain = 0
KSM2 012006Z 26008KT 37/03 A2992 RMK A01 T03720027  RH  012%=      5-min Rain = 0
KSM2 012007Z 25008KT 37/02 A2992 RMK A01 T03710024  RH  011%=      5-min Rain = 0
KSM2 012008Z 26005KT 37/03 A2992 RMK A01 T03730030  RH  012%=      5-min Rain = 0
KSM2 012009Z 25005KT 37/03 A2992 RMK A01 T03740030  RH  012%=      5-min Rain = 0
KSM2 012010Z 22007KT 37/03 A2992 RMK A01 T03730031  RH  012%=      5-min Rain = 0
KSM2 012011Z 24005KT 37/02 A2992 RMK A01 T03690018  RH  011%=      5-min Rain = 0
KSM2 012012Z 25004KT 37/03 A2992 RMK A01 T03670025  RH  012%=      5-min Rain = 0
KSM2 012013Z 24005KT 37/02 A2992 RMK A01 T03700024  RH  012%=      5-min Rain = 0
KSM2 012014Z 27004KT 37/03 A2991 RMK A01 T03710030  RH  012%=      5-min Rain = 0
KSM2 012015Z 30008KT 37/03 A2991 RMK A01 T03730032  RH  012%=      5-min Rain = 0
KSM2 012016Z 28008KT 38/03 A2991 RMK A01 T03780028  RH  011%=      5-min Rain = 0
KSM2 012017Z 28006KT 38/02 A2991 RMK A01 T03760022  RH  011%=      5-min Rain = 0
KSM2 012018Z 26006KT 37/02 A2991 RMK A01 T03720023  RH  011%=      5-min Rain = 0
KSM2 012019Z 25005KT 37/02 A2991 RMK A01 T03690018  RH  011%=      5-min Rain = 0
KSM2 012020Z 29005KT 37/03 A2991 RMK A01 T03670026  RH  012%=      5-min Rain = 0
KSM2 012021Z 30006KT 37/03 A2991 RMK A01 T03700028  RH  012%=      5-min Rain = 0
KSM2 012022Z 29010KT 38/03 A2991 RMK A01 T03780030  RH  012%=      5-min Rain = 0
KSM2 012023Z 29007KT 38/02 A2991 RMK A01 T03780023  RH  011%=      5-min Rain = 0
KSM2 012024Z 25005KT 37/03 A2991 RMK A01 T03740025  RH  011%=      5-min Rain = 0
KSM2 012025Z 26005KT 37/03 A2991 RMK A01 T03730029  RH  012%=      5-min Rain = 0
KSM2 012026Z 27002KT 37/03 A2991 RMK A01 T03730031  RH  012%=      5-min Rain = 0
KSM2 012027Z 28004KT 37/03 A2991 RMK A01 T03730032  RH  012%=      5-min Rain = 0
KSM2 012028Z 29008KT 38/03 A2991 RMK A01 T03750032  RH  012%=      5-min Rain = 0
KSM2 012029Z 29007KT 38/03 A2991 RMK A01 T03810030  RH  011%=      5-min Rain = 0
KSM2 012030Z 29010KT 38/03 A2991 RMK A01 T03820031  RH  011%=      5-min Rain = 0
KSM2 012031Z 26012KT 39/03 A2991 RMK A01 T03850033  RH  011%=      5-min Rain = 0
KSM2 012032Z 27008KT 38/03 A2991 RMK A01 T03830028  RH  011%=      5-min Rain = 0
KSM2 012033Z 27008KT 38/02 A2991 RMK A01 T03770024  RH  011%=      5-min Rain = 0
KSM2 012034Z 29006KT 37/03 A2991 RMK A01 T03730025  RH  011%=      5-min Rain = 0
KSM2 012035Z 28006KT 37/03 A2991 RMK A01 T03720025  RH  012%=      5-min Rain = 0
KSM2 012036Z 28009KT 37/03 A2991 RMK A01 T03720030  RH  012%=      5-min Rain = 0
KSM2 012037Z 28009KT 37/03 A2991 RMK A01 T03740028  RH  012%=      5-min Rain = 0
KSM2 012038Z 26012KT 38/03 A2991 RMK A01 T03770032  RH  012%=      5-min Rain = 0
KSM2 012039Z 25011KT 38/03 A2991 RMK A01 T03790032  RH  012%=      5-min Rain = 0
KSM2 012040Z 23008KT 38/03 A2991 RMK A01 T03790028  RH  011%=      5-min Rain = 0
KSM2 012041Z 25005KT 37/03 A2991 RMK A01 T03740028  RH  012%=      5-min Rain = 0
KSM2 012042Z 28008KT 37/03 A2991 RMK A01 T03720027  RH  012%=      5-min Rain = 0
KSM2 012043Z 30007KT 38/03 A2991 RMK A01 T03750029  RH  012%=      5-min Rain = 0
KSM2 012044Z 30006KT 38/02 A2991 RMK A01 T03760021  RH  011%=      5-min Rain = 0
KSM2 012045Z 30005KT 37/02 A2991 RMK A01 T03720022  RH  011%=      5-min Rain = 0
KSM2 012046Z 33005KT 37/02 A2991 RMK A01 T03710018  RH  011%=      5-min Rain = 0
KSM2 012047Z 34005KT 37/02 A2991 RMK A01 T03690018  RH  011%=      5-min Rain = 0
KSM2 012048Z 34004KT 37/02 A2991 RMK A01 T03670018  RH  011%=      5-min Rain = 0
KSM2 012049Z 35005KT 37/02 A2991 RMK A01 T03680021  RH  011%=      5-min Rain = 0
KSM2 012050Z 34006KT 37/02 A2991 RMK A01 T03700021  RH  011%=      5-min Rain = 0
KSM2 012051Z 33004KT 37/02 A2991 RMK A01 T03700019  RH  011%=      5-min Rain = 0
KSM2 012052Z 30001KT 37/02 A2991 RMK A01 T03690024  RH  012%=      5-min Rain = 0
KSM2 012053Z 34004KT 37/03 A299 RMK A01 T03690026  RH  012%=      5-min Rain = 0
KSM2 012054Z 03003KT 37/02 A299 RMK A01 T03700023  RH  011%=      5-min Rain = 0
KSM2 012055Z 04006KT 37/03 A299 RMK A01 T03710025  RH  012%=      5-min Rain = 0
KSM2 012056Z 04005KT 38/03 A299 RMK A01 T03750028  RH  012%=      5-min Rain = 0
KSM2 012057Z 02004KT 38/03 A299 RMK A01 T03770025  RH  011%=      5-min Rain = 0
KSM2 012058Z 32008KT 38/03 A299 RMK A01 T03790028  RH  011%=      5-min Rain = 0
KSM2 012059Z 34002KT 38/03 A299 RMK A01 T03810026  RH  011%=      5-min Rain = 0
KSM2 012100Z 35007KT 38/03 A299 RMK A01 T03810027  RH  011%=      5-min Rain = 0
KSM2 012101Z 35005KT 38/02 A299 RMK A01 T03800024  RH  011%=      5-min Rain = 0
KSM2 012102Z 35003KT 38/02 A299 RMK A01 T03770022  RH  011%=      5-min Rain = 0
KSM2 012103Z 03002KT 38/03 A299 RMK A01 T03750025  RH  011%=      5-min Rain = 0
KSM2 012104Z 03002KT 38/03 A299 RMK A01 T03750027  RH  011%=      5-min Rain = 0
KSM2 012105Z 04003KT 38/03 A299 RMK A01 T03760025  RH  011%=      5-min Rain = 0
KSM2 012106Z 06003KT 38/03 A299 RMK A01 T03750026  RH  011%=      5-min Rain = 0
KSM2 012107Z 08002KT 38/03 A299 RMK A01 T03750025  RH  011%=      5-min Rain = 0
KSM2 012108Z 08005KT 38/04 A299 RMK A01 T03760035  RH  012%=      5-min Rain = 0
KSM2 012109Z 09005KT 38/03 A299 RMK A01 T03780032  RH  012%=      5-min Rain = 0
KSM2 012110Z 02003KT 38/03 A299 RMK A01 T03790032  RH  012%=      5-min Rain = 0
KSM2 012111Z 33006KT 38/03 A299 RMK A01 T03800027  RH  011%=      5-min Rain = 0
KSM2 012112Z 34009KT 38/03 A299 RMK A01 T03790027  RH  011%=      5-min Rain = 0
KSM2 012113Z 36005KT 38/03 A299 RMK A01 T03770025  RH  011%=      5-min Rain = 0
KSM2 012114Z 01005KT 38/03 A299 RMK A01 T03750027  RH  012%=      5-min Rain = 0
KSM2 012115Z 04003KT 38/03 A299 RMK A01 T03750026  RH  011%=      5-min Rain = 0
KSM2 012116Z 03003KT 37/03 A299 RMK A01 T03740029  RH  012%=      5-min Rain = 0
KSM2 012117Z 00006KT 37/03 A299 RMK A01 T03740027  RH  012%=      5-min Rain = 0
KSM2 012118Z 02006KT 38/03 A299 RMK A01 T03750028  RH  012%=      5-min Rain = 0
KSM2 012119Z 04003KT 38/03 A299 RMK A01 T03750029  RH  012%=      5-min Rain = 0
KSM2 012120Z 06004KT 38/03 A2989 RMK A01 T03750032  RH  012%=      5-min Rain = 0
KSM2 012121Z 09002KT 38/03 A2989 RMK A01 T03750028  RH  012%=      5-min Rain = 0
KSM2 012122Z 03001KT 38/03 A2989 RMK A01 T03750034  RH  012%=      5-min Rain = 0
KSM2 012123Z 00006KT 38/03 A2989 RMK A01 T03760030  RH  012%=      5-min Rain = 0
KSM2 012124Z 01005KT 38/02 A2989 RMK A01 T03750024  RH  011%=      5-min Rain = 0
KSM2 012125Z 02003KT 37/03 A2989 RMK A01 T03710025  RH  012%=      5-min Rain = 0
KSM2 012126Z 02005KT 37/03 A2989 RMK A01 T03690026  RH  012%=      5-min Rain = 0
KSM2 012127Z 01005KT 37/03 A2989 RMK A01 T03690026  RH  012%=      5-min Rain = 0
KSM2 012128Z 03004KT 37/03 A2989 RMK A01 T03680025  RH  012%=      5-min Rain = 0
KSM2 012129Z 02006KT 37/03 A2989 RMK A01 T03690030  RH  012%=      5-min Rain = 0
KSM2 012130Z 01007KT 37/03 A2989 RMK A01 T03710031  RH  012%=      5-min Rain = 0
KSM2 012131Z 36007KT 37/02 A2989 RMK A01 T03720024  RH  011%=      5-min Rain = 0
KSM2 012132Z 00004KT 37/02 A2989 RMK A01 T03700023  RH  012%=      5-min Rain = 0
KSM2 012133Z 00003KT 37/02 A2989 RMK A01 T03700023  RH  012%=      5-min Rain = 0
KSM2 012134Z 00002KT 37/02 A2989 RMK A01 T03700024  RH  012%=      5-min Rain = 0
KSM2 012135Z 00002KT 37/03 A2989 RMK A01 T03700029  RH  012%=      5-min Rain = 0
KSM2 012136Z 04001KT 37/03 A2989 RMK A01 T03720030  RH  012%=      5-min Rain = 0
KSM2 012137Z 05002KT 37/04 A2989 RMK A01 T03740036  RH  012%=      5-min Rain = 0
KSM2 012138Z 05001KT 38/05 A2989 RMK A01 T03770047  RH  013%=      5-min Rain = 0
KSM2 012139Z 06001KT 38/04 A2989 RMK A01 T03790037  RH  012%=      5-min Rain = 0
KSM2 012140Z 02001KT 38/03 A2989 RMK A01 T03790030  RH  012%=      5-min Rain = 0
KSM2 012141Z 25003KT 38/03 A2989 RMK A01 T03780027  RH  011%=      5-min Rain = 0
KSM2 012142Z 25006KT 37/03 A2989 RMK A01 T03740026  RH  011%=      5-min Rain = 0
KSM2 012143Z 24005KT 37/03 A2989 RMK A01 T03730031  RH  012%=      5-min Rain = 0
KSM2 012144Z 24005KT 37/02 A2989 RMK A01 T03730024  RH  011%=      5-min Rain = 0
KSM2 012145Z 27004KT 37/03 A2989 RMK A01 T03730029  RH  012%=      5-min Rain = 0
KSM2 012146Z 25009KT 38/03 A2989 RMK A01 T03760029  RH  012%=      5-min Rain = 0
KSM2 012147Z 22006KT 38/03 A2989 RMK A01 T03770034  RH  012%=      5-min Rain = 0
KSM2 012148Z 24008KT 38/03 A2989 RMK A01 T03760034  RH  012%=      5-min Rain = 0
KSM2 012149Z 24012KT 38/03 A2989 RMK A01 T03770028  RH  012%=      5-min Rain = 0
KSM2 012150Z 25009KT 38/03 A2989 RMK A01 T03760026  RH  011%=      5-min Rain = 0
KSM2 012151Z 26006KT 38/03 A2989 RMK A01 T03760026  RH  011%=      5-min Rain = 0
KSM2 012152Z 25010KT 38/02 A2989 RMK A01 T03760023  RH  011%=      5-min Rain = 0
KSM2 012153Z 23009KT 38/02 A2989 RMK A01 T03750023  RH  011%=      5-min Rain = 0
KSM2 012154Z 24006KT 37/02 A2989 RMK A01 T03740023  RH  011%=      5-min Rain = 0
KSM2 012155Z 25005KT 37/02 A2989 RMK A01 T03740020  RH  011%=      5-min Rain = 0
KSM2 012156Z 20005KT 37/04 A2989 RMK A01 T03730035  RH  012%=      5-min Rain = 0
KSM2 012157Z 17003KT 37/03 A2989 RMK A01 T03740032  RH  012%=      5-min Rain = 0
KSM2 012158Z 18005KT 38/03 A2989 RMK A01 T03750030  RH  012%=      5-min Rain = 0
KSM2 012159Z 14003KT 38/03 A2989 RMK A01 T03750028  RH  012%=      5-min Rain = 0
KSM2 012200Z 23002KT 38/03 A2989 RMK A01 T03750029  RH  012%=      5-min Rain = 0
KSM2 012201Z 22004KT 38/02 A2988 RMK A01 T03750021  RH  011%=      5-min Rain = 0
KSM2 012202Z 23007KT 38/03 A2988 RMK A01 T03750029  RH  012%=      5-min Rain = 0
KSM2 012203Z 25005KT 38/02 A2988 RMK A01 T03750019  RH  011%=      5-min Rain = 0
KSM2 012204Z 24003KT 37/02 A2988 RMK A01 T03740021  RH  011%=      5-min Rain = 0
KSM2 012205Z 15003KT 38/03 A2988 RMK A01 T03750028  RH  012%=      5-min Rain = 0
KSM2 012206Z 13001KT 38/02 A2988 RMK A01 T03750021  RH  011%=      5-min Rain = 0
KSM2 012207Z 23006KT 38/04 A2988 RMK A01 T03760038  RH  012%=      5-min Rain = 0
KSM2 012208Z 21006KT 38/03 A2988 RMK A01 T03770033  RH  012%=      5-min Rain = 0
KSM2 012209Z 18003KT 38/03 A2988 RMK A01 T03760029  RH  012%=      5-min Rain = 0
KSM2 012210Z 14001KT 38/03 A2988 RMK A01 T03750031  RH  012%=      5-min Rain = 0
KSM2 012211Z 32002KT 38/03 A2988 RMK A01 T03770025  RH  011%=      5-min Rain = 0
KSM2 012212Z 26004KT 38/02 A2988 RMK A01 T03800022  RH  011%=      5-min Rain = 0
KSM2 012213Z 27007KT 38/02 A2988 RMK A01 T03810023  RH  011%=      5-min Rain = 0
KSM2 012214Z 26008KT 38/02 A2988 RMK A01 T03810024  RH  011%=      5-min Rain = 0
KSM2 012215Z 26007KT 38/02 A2988 RMK A01 T03820023  RH  011%=      5-min Rain = 0
KSM2 012216Z 26006KT 38/02 A2988 RMK A01 T03800020  RH  011%=      5-min Rain = 0
KSM2 012217Z 24008KT 38/02 A2988 RMK A01 T03800021  RH  011%=      5-min Rain = 0
KSM2 012218Z 25006KT 38/02 A2988 RMK A01 T03770017  RH  011%=      5-min Rain = 0
KSM2 012219Z 26004KT 38/02 A2988 RMK A01 T03750019  RH  011%=      5-min Rain = 0
KSM2 012220Z 26003KT 37/02 A2988 RMK A01 T03740020  RH  011%=      5-min Rain = 0
KSM2 012221Z 28004KT 37/02 A2988 RMK A01 T03740023  RH  011%=      5-min Rain = 0
KSM2 012222Z 25005KT 37/02 A2987 RMK A01 T03730022  RH  011%=      5-min Rain = 0
KSM2 012223Z 25006KT 37/03 A2987 RMK A01 T03730025  RH  011%=      5-min Rain = 0
KSM2 012224Z 27006KT 37/02 A2987 RMK A01 T03730017  RH  011%=      5-min Rain = 0
KSM2 012225Z 28004KT 37/01 A2987 RMK A01 T03700014  RH  011%=      5-min Rain = 0
KSM2 012226Z 25003KT 37/02 A2988 RMK A01 T03700016  RH  011%=      5-min Rain = 0
KSM2 012227Z 03000KT 37/01 A2987 RMK A01 T03690011  RH  011%=      5-min Rain = 0
KSM2 012228Z 00001KT 37/01 A2987 RMK A01 T03680012  RH  011%=      5-min Rain = 0
KSM2 012229Z 36002KT 37/01 A2987 RMK A01 T03690013  RH  011%=      5-min Rain = 0
KSM2 012230Z 35002KT 37/01 A2987 RMK A01 T03680014  RH  011%=      5-min Rain = 0
KSM2 012231Z 34003KT 37/01 A2987 RMK A01 T03690014  RH  011%=      5-min Rain = 0
KSM2 012232Z 33002KT 37/02 A2987 RMK A01 T03690015  RH  011%=      5-min Rain = 0
KSM2 012233Z 29001KT 37/02 A2987 RMK A01 T03690017  RH  011%=      5-min Rain = 0
KSM2 012234Z 25001KT 37/02 A2987 RMK A01 T03690015  RH  011%=      5-min Rain = 0
KSM2 012235Z 26001KT 37/01 A2987 RMK A01 T03690014  RH  011%=      5-min Rain = 0
KSM2 012236Z 26002KT 37/02 A2987 RMK A01 T03680015  RH  011%=      5-min Rain = 0
KSM2 012237Z 26005KT 37/02 A2987 RMK A01 T03690021  RH  011%=      5-min Rain = 0
KSM2 012238Z 24007KT 37/03 A2987 RMK A01 T03700027  RH  012%=      5-min Rain = 0
KSM2 012239Z 24007KT 37/03 A2987 RMK A01 T03710032  RH  012%=      5-min Rain = 0
KSM2 012240Z 25008KT 37/03 A2987 RMK A01 T03710029  RH  012%=      5-min Rain = 0
KSM2 012241Z 24006KT 37/02 A2987 RMK A01 T03720018  RH  011%=      5-min Rain = 0
KSM2 012242Z 24006KT 37/01 A2987 RMK A01 T03710013  RH  011%=      5-min Rain = 0
KSM2 012243Z 26005KT 37/02 A2987 RMK A01 T03710016  RH  011%=      5-min Rain = 0
KSM2 012244Z 25004KT 37/02 A2987 RMK A01 T03710016  RH  011%=      5-min Rain = 0
KSM2 012245Z 24005KT 37/01 A2987 RMK A01 T03720014  RH  011%=      5-min Rain = 0
KSM2 012246Z 26005KT 37/01 A2987 RMK A01 T03710008  RH  010%=      5-min Rain = 0
KSM2 012247Z 27004KT 37/01 A2987 RMK A01 T03710008  RH  010%=      5-min Rain = 0
KSM2 012248Z 29002KT 37/01 A2987 RMK A01 T03700007  RH  010%=      5-min Rain = 0
KSM2 012249Z 31003KT 37/01 A2987 RMK A01 T03700007  RH  010%=      5-min Rain = 0
KSM2 012250Z 35002KT 37/01 A2987 RMK A01 T03710005  RH  010%=      5-min Rain = 0
KSM2 012251Z 33002KT 37/01 A2987 RMK A01 T03720014  RH  011%=      5-min Rain = 0
KSM2 012252Z 32004KT 37/03 A2987 RMK A01 T03720025  RH  012%=      5-min Rain = 0
KSM2 012253Z 33004KT 37/02 A2987 RMK A01 T03730023  RH  011%=      5-min Rain = 0
KSM2 012254Z 34003KT 37/02 A2987 RMK A01 T03730024  RH  011%=      5-min Rain = 0
KSM2 012255Z 01003KT 37/03 A2987 RMK A01 T03730029  RH  012%=      5-min Rain = 0
KSM2 012256Z 01004KT 38/03 A2987 RMK A01 T03750030  RH  012%=      5-min Rain = 0
KSM2 012257Z 02004KT 38/03 A2987 RMK A01 T03750027  RH  011%=      5-min Rain = 0
KSM2 012258Z 01005KT 37/03 A2987 RMK A01 T03740028  RH  012%=      5-min Rain = 0
KSM2 012259Z 01003KT 37/02 A2987 RMK A01 T03740024  RH  011%=      5-min Rain = 0
KSM2 012300Z 36005KT 37/03 A2987 RMK A01 T03730028  RH  012%=      5-min Rain = 0
KSM2 012301Z 00007KT 37/03 A2987 RMK A01 T03740027  RH  012%=      5-min Rain = 0
KSM2 012302Z 00005KT 37/03 A2987 RMK A01 T03740026  RH  011%=      5-min Rain = 0
KSM2 012303Z 01007KT 37/03 A2987 RMK A01 T03740030  RH  012%=      5-min Rain = 0
KSM2 012304Z 01006KT 38/03 A2987 RMK A01 T03750025  RH  011%=      5-min Rain = 0
KSM2 012305Z 01004KT 37/03 A2987 RMK A01 T03740026  RH  011%=      5-min Rain = 0
KSM2 012306Z 01005KT 37/03 A2987 RMK A01 T03730025  RH  011%=      5-min Rain = 0
KSM2 012307Z 34004KT 37/03 A2987 RMK A01 T03730028  RH  012%=      5-min Rain = 0
KSM2 012308Z 34004KT 37/03 A2987 RMK A01 T03730025  RH  011%=      5-min Rain = 0
KSM2 012309Z 30003KT 37/03 A2987 RMK A01 T03730026  RH  012%=      5-min Rain = 0
KSM2 012310Z 29005KT 37/03 A2987 RMK A01 T03720025  RH  012%=      5-min Rain = 0
KSM2 012311Z 29006KT 37/03 A2987 RMK A01 T03720027  RH  012%=      5-min Rain = 0
KSM2 012312Z 29007KT 37/02 A2987 RMK A01 T03720024  RH  011%=      5-min Rain = 0
KSM2 012313Z 28008KT 37/03 A2987 RMK A01 T03720028  RH  012%=      5-min Rain = 0
KSM2 012314Z 28007KT 37/03 A2987 RMK A01 T03720029  RH  012%=      5-min Rain = 0
KSM2 012315Z 28005KT 37/03 A2987 RMK A01 T03720026  RH  012%=      5-min Rain = 0
KSM2 012316Z 29006KT 37/03 A2987 RMK A01 T03710025  RH  012%=      5-min Rain = 0
KSM2 012317Z 29003KT 37/02 A2987 RMK A01 T03700022  RH  011%=      5-min Rain = 0
KSM2 012318Z 28003KT 37/02 A2987 RMK A01 T03700023  RH  011%=      5-min Rain = 0
KSM2 012319Z 27004KT 37/02 A2987 RMK A01 T03690024  RH  012%=      5-min Rain = 0
KSM2 012320Z 28002KT 37/02 A2987 RMK A01 T03690020  RH  011%=      5-min Rain = 0
KSM2 012321Z 27001KT 37/03 A2987 RMK A01 T03690026  RH  012%=      5-min Rain = 0
KSM2 012322Z 32002KT 37/02 A2987 RMK A01 T03700022  RH  011%=      5-min Rain = 0
KSM2 012323Z 34001KT 37/02 A2987 RMK A01 T03700018  RH  011%=      5-min Rain = 0
KSM2 012324Z 02001KT 37/02 A2987 RMK A01 T03700021  RH  011%=      5-min Rain = 0
KSM2 012325Z 30001KT 37/02 A2987 RMK A01 T03710024  RH  012%=      5-min Rain = 0
KSM2 012326Z 33001KT 37/02 A2987 RMK A01 T03710018  RH  011%=      5-min Rain = 0
KSM2 012327Z 30003KT 37/02 A2987 RMK A01 T03710021  RH  011%=      5-min Rain = 0
KSM2 012328Z 31003KT 37/03 A2986 RMK A01 T03710026  RH  012%=      5-min Rain = 0
KSM2 012329Z 28006KT 37/03 A2986 RMK A01 T03730027  RH  012%=      5-min Rain = 0
KSM2 012330Z 28006KT 37/03 A2986 RMK A01 T03730028  RH  012%=      5-min Rain = 0
KSM2 012331Z 29004KT 37/03 A2986 RMK A01 T03740026  RH  012%=      5-min Rain = 0
KSM2 012332Z 29004KT 37/02 A2986 RMK A01 T03740023  RH  011%=      5-min Rain = 0
KSM2 012333Z 27004KT 37/03 A2986 RMK A01 T03740029  RH  012%=      5-min Rain = 0
KSM2 012334Z 30004KT 37/02 A2986 RMK A01 T03740024  RH  011%=      5-min Rain = 0
KSM2 012335Z 31003KT 37/02 A2986 RMK A01 T03730015  RH  011%=      5-min Rain = 0
KSM2 012336Z 32002KT 37/01 A2986 RMK A01 T03730012  RH  010%=      5-min Rain = 0
KSM2 012337Z 32002KT 37/01 A2986 RMK A01 T03710008  RH  010%=      5-min Rain = 0
KSM2 012338Z 34001KT 37/01 A2986 RMK A01 T03700010  RH  010%=      5-min Rain = 0
KSM2 012339Z 01001KT 37/01 A2986 RMK A01 T03700010  RH  010%=      5-min Rain = 0
KSM2 012340Z 02000KT 37/01 A2986 RMK A01 T03700011  RH  011%=      5-min Rain = 0
KSM2 012341Z 31003KT 37/01 A2986 RMK A01 T03700011  RH  011%=      5-min Rain = 0
KSM2 012342Z 30003KT 37/01 A2986 RMK A01 T03700010  RH  010%=      5-min Rain = 0
KSM2 012343Z 33003KT 37/02 A2986 RMK A01 T03700015  RH  011%=      5-min Rain = 0
KSM2 012344Z 34002KT 37/01 A2986 RMK A01 T03710010  RH  010%=      5-min Rain = 0
KSM2 012345Z 34003KT 37/01 A2986 RMK A01 T03710011  RH  010%=      5-min Rain = 0
KSM2 012346Z 34004KT 37/01 A2986 RMK A01 T03710008  RH  010%=      5-min Rain = 0
KSM2 012347Z 36003KT 37/01 A2986 RMK A01 T03710007  RH  010%=      5-min Rain = 0
KSM2 012348Z 36003KT 37/01 A2986 RMK A01 T03700007  RH  010%=      5-min Rain = 0
KSM2 012349Z 00002KT 37/01 A2986 RMK A01 T03700012  RH  011%=      5-min Rain = 0
KSM2 012350Z 01001KT 37/01 A2986 RMK A01 T03700012  RH  011%=      5-min Rain = 0
KSM2 012351Z 01002KT 37/01 A2986 RMK A01 T03690013  RH  011%=      5-min Rain = 0
KSM2 012352Z 02002KT 37/02 A2986 RMK A01 T03690017  RH  011%=      5-min Rain = 0
KSM2 012353Z 01002KT 37/02 A2986 RMK A01 T03680021  RH  011%=      5-min Rain = 0
KSM2 012354Z 34003KT 37/01 A2986 RMK A01 T03680014  RH  011%=      5-min Rain = 0
KSM2 012355Z 34004KT 37/01 A2986 RMK A01 T03680014  RH  011%=      5-min Rain = 0
KSM2 012356Z 34002KT 37/01 A2986 RMK A01 T03680011  RH  011%=      5-min Rain = 0
KSM2 012357Z 35003KT 37/01 A2986 RMK A01 T03670011  RH  011%=      5-min Rain = 0
KSM2 012358Z 34004KT 37/02 A2986 RMK A01 T03670016  RH  011%=      5-min Rain = 0
KSM2 012359Z 35003KT 37/01 A2986 RMK A01 T03670012  RH  011%=      5-min Rain = 0
KSM2 020000Z 02003KT 37/02 A2986 RMK A01 T03670016  RH  011%=      5-min Rain = 0
KSM2 020001Z 02003KT 37/02 A2986 RMK A01 T03660022  RH  012%=      5-min Rain = 0
KSM2 020002Z 01003KT 36/01 A2986 RMK A01 T03640014  RH  011%=      5-min Rain = 0
KSM2 020003Z 01003KT 36/02 A2986 RMK A01 T03630017  RH  011%=      5-min Rain = 0
KSM2 020004Z 00002KT 36/02 A2986 RMK A01 T03630020  RH  012%=      5-min Rain = 0
KSM2 020005Z 36002KT 36/02 A2986 RMK A01 T03620022  RH  012%=      5-min Rain = 0
KSM2 020006Z 01002KT 36/02 A2986 RMK A01 T03610017  RH  012%=      5-min Rain = 0
KSM2 020007Z 36002KT 36/03 A2986 RMK A01 T03610025  RH  012%=      5-min Rain = 0
KSM2 020008Z 36002KT 36/02 A2986 RMK A01 T03610021  RH  012%=      5-min Rain = 0
KSM2 020009Z 34001KT 36/02 A2986 RMK A01 T03610022  RH  012%=      5-min Rain = 0
KSM2 020010Z 01002KT 36/02 A2986 RMK A01 T03600023  RH  012%=      5-min Rain = 0
KSM2 020011Z 01001KT 36/02 A2986 RMK A01 T03600016  RH  012%=      5-min Rain = 0
KSM2 020012Z 01001KT 36/01 A2986 RMK A01 T03600014  RH  011%=      5-min Rain = 0
KSM2 020013Z 35001KT 36/01 A2986 RMK A01 T03610012  RH  011%=      5-min Rain = 0
KSM2 020014Z 36001KT 36/01 A2986 RMK A01 T03620010  RH  011%=      5-min Rain = 0
KSM2 020015Z 02001KT 36/02 A2986 RMK A01 T03620015  RH  011%=      5-min Rain = 0
KSM2 020016Z 03001KT 36/04 A2986 RMK A01 T03620040  RH  013%=      5-min Rain = 0
KSM2 020017Z 03001KT 36/04 A2986 RMK A01 T03620038  RH  013%=      5-min Rain = 0
KSM2 020018Z 04001KT 36/04 A2986 RMK A01 T03620036  RH  013%=      5-min Rain = 0
KSM2 020019Z 05001KT 36/03 A2986 RMK A01 T03610029  RH  013%=      5-min Rain = 0
KSM2 020020Z 05001KT 36/03 A2986 RMK A01 T03610025  RH  012%=      5-min Rain = 0
KSM2 020021Z 04001KT 36/03 A2986 RMK A01 T03610028  RH  013%=      5-min Rain = 0
KSM2 020022Z 04001KT 36/05 A2986 RMK A01 T03610045  RH  014%=      5-min Rain = 0
KSM2 020023Z 05001KT 36/04 A2986 RMK A01 T03610037  RH  013%=      5-min Rain = 0
KSM2 020024Z 06002KT 36/04 A2986 RMK A01 T03610037  RH  013%=      5-min Rain = 0
KSM2 020025Z 06001KT 36/04 A2986 RMK A01 T03610037  RH  013%=      5-min Rain = 0
KSM2 020026Z 08001KT 36/04 A2986 RMK A01 T03620038  RH  013%=      5-min Rain = 0
KSM2 020027Z 08001KT 36/06 A2986 RMK A01 T03620058  RH  015%=      5-min Rain = 0
KSM2 020028Z 10002KT 36/06 A2986 RMK A01 T03640060  RH  015%=      5-min Rain = 0
KSM2 020029Z 10002KT 37/04 A2987 RMK A01 T03650042  RH  014%=      5-min Rain = 0
KSM2 020030Z 10002KT 37/03 A2987 RMK A01 T03660032  RH  013%=      5-min Rain = 0
KSM2 020031Z 12002KT 37/04 A2987 RMK A01 T03680042  RH  013%=      5-min Rain = 0
KSM2 020032Z 17003KT 37/03 A2987 RMK A01 T03690030  RH  012%=      5-min Rain = 0
KSM2 020033Z 16003KT 37/03 A2987 RMK A01 T03700029  RH  012%=      5-min Rain = 0
KSM2 020034Z 16002KT 37/03 A2987 RMK A01 T03700027  RH  012%=      5-min Rain = 0
KSM2 020035Z 18002KT 37/03 A2987 RMK A01 T03700034  RH  012%=      5-min Rain = 0
KSM2 020036Z 21002KT 37/04 A2987 RMK A01 T03690036  RH  013%=      5-min Rain = 0
KSM2 020037Z 23002KT 37/04 A2987 RMK A01 T03690037  RH  013%=      5-min Rain = 0
KSM2 020038Z 21001KT 37/02 A2987 RMK A01 T03690020  RH  011%=      5-min Rain = 0
KSM2 020039Z 21002KT 37/02 A2987 RMK A01 T03690018  RH  011%=      5-min Rain = 0
KSM2 020040Z 19003KT 37/03 A2987 RMK A01 T03700030  RH  012%=      5-min Rain = 0
KSM2 020041Z 18003KT 37/03 A2987 RMK A01 T03690025  RH  012%=      5-min Rain = 0
KSM2 020042Z 17004KT 37/03 A2987 RMK A01 T03680031  RH  012%=      5-min Rain = 0
KSM2 020043Z 16005KT 37/01 A2987 RMK A01 T03680014  RH  011%=      5-min Rain = 0
KSM2 020044Z 18007KT 37/02 A2987 RMK A01 T03680017  RH  011%=      5-min Rain = 0
KSM2 020045Z 19007KT 37/01 A2987 RMK A01 T03670009  RH  011%=      5-min Rain = 0
KSM2 020046Z 20007KT 37/02 A2987 RMK A01 T03660016  RH  011%=      5-min Rain = 0
KSM2 020047Z 20006KT 36/02 A2987 RMK A01 T03640018  RH  011%=      5-min Rain = 0
KSM2 020048Z 20007KT 36/02 A2987 RMK A01 T03630016  RH  011%=      5-min Rain = 0
KSM2 020049Z 18006KT 36/02 A2987 RMK A01 T03620017  RH  011%=      5-min Rain = 0
KSM2 020050Z 19009KT 36/01 A2987 RMK A01 T03620014  RH  011%=      5-min Rain = 0
KSM2 020051Z 20008KT 36/02 A2987 RMK A01 T03620015  RH  011%=      5-min Rain = 0
KSM2 020052Z 20007KT 36/02 A2987 RMK A01 T03610020  RH  012%=      5-min Rain = 0
KSM2 020053Z 19008KT 36/02 A2987 RMK A01 T03600018  RH  012%=      5-min Rain = 0
KSM2 020054Z 19008KT 36/02 A2987 RMK A01 T03600017  RH  012%=      5-min Rain = 0
KSM2 020055Z 20007KT 36/02 A2987 RMK A01 T03600016  RH  012%=      5-min Rain = 0
KSM2 020056Z 19008KT 36/01 A2987 RMK A01 T03600013  RH  011%=      5-min Rain = 0
KSM2 020057Z 20007KT 36/01 A2987 RMK A01 T03610011  RH  011%=      5-min Rain = 0
KSM2 020058Z 20007KT 36/02 A2987 RMK A01 T03620018  RH  012%=      5-min Rain = 0
KSM2 020059Z 20006KT 36/01 A2987 RMK A01 T03620012  RH  011%=      5-min Rain = 0
KSM2 020100Z 18005KT 36/01 A2987 RMK A01 T03630011  RH  011%=      5-min Rain = 0
KSM2 020101Z 19006KT 36/01 A2987 RMK A01 T03640008  RH  011%=      5-min Rain = 0
KSM2 020102Z 19004KT 36/01 A2987 RMK A01 T03640009  RH  011%=      5-min Rain = 0
KSM2 020103Z 18004KT 36/02 A2987 RMK A01 T03640022  RH  012%=      5-min Rain = 0
KSM2 020104Z 18005KT 36/02 A2987 RMK A01 T03630017  RH  011%=      5-min Rain = 0
KSM2 020105Z 18003KT 36/01 A2988 RMK A01 T03630014  RH  011%=      5-min Rain = 0
KSM2 020106Z 17004KT 36/02 A2988 RMK A01 T03620020  RH  012%=      5-min Rain = 0
KSM2 020107Z 16004KT 36/02 A2988 RMK A01 T03610019  RH  012%=      5-min Rain = 0
KSM2 020108Z 15004KT 36/01 A2988 RMK A01 T03610014  RH  011%=      5-min Rain = 0
KSM2 020109Z 16004KT 36/01 A2988 RMK A01 T03610009  RH  011%=      5-min Rain = 0
KSM2 020110Z 16005KT 36/01 A2988 RMK A01 T03620012  RH  011%=      5-min Rain = 0
KSM2 020111Z 16004KT 36/01 A2988 RMK A01 T03610008  RH  011%=      5-min Rain = 0
KSM2 020112Z 15005KT 36/01 A2988 RMK A01 T03620014  RH  011%=      5-min Rain = 0
KSM2 020113Z 15004KT 36/02 A2988 RMK A01 T03610015  RH  011%=      5-min Rain = 0
KSM2 020114Z 15005KT 36/02 A2988 RMK A01 T03600015  RH  011%=      5-min Rain = 0
KSM2 020115Z 16005KT 36/01 A2988 RMK A01 T03600010  RH  011%=      5-min Rain = 0
KSM2 020116Z 16005KT 36/02 A2988 RMK A01 T03600015  RH  011%=      5-min Rain = 0
KSM2 020117Z 17006KT 36/01 A2988 RMK A01 T03590009  RH  011%=      5-min Rain = 0
KSM2 020118Z 17004KT 36/01 A2988 RMK A01 T03590012  RH  011%=      5-min Rain = 0
KSM2 020119Z 17004KT 36/02 A2988 RMK A01 T03590017  RH  012%=      5-min Rain = 0
KSM2 020120Z 17004KT 36/02 A2988 RMK A01 T03580017  RH  012%=      5-min Rain = 0
KSM2 020121Z 18005KT 36/01 A2988 RMK A01 T03570014  RH  012%=      5-min Rain = 0
KSM2 020122Z 18005KT 36/01 A2988 RMK A01 T03560012  RH  011%=      5-min Rain = 0
KSM2 020123Z 18005KT 36/01 A2988 RMK A01 T03560012  RH  011%=      5-min Rain = 0
KSM2 020124Z 18005KT 36/02 A2988 RMK A01 T03560017  RH  012%=      5-min Rain = 0
KSM2 020125Z 18007KT 35/02 A2988 RMK A01 T03540015  RH  012%=      5-min Rain = 0
KSM2 020126Z 17005KT 35/02 A2988 RMK A01 T03540016  RH  012%=      5-min Rain = 0
KSM2 020127Z 18005KT 35/02 A2988 RMK A01 T03530017  RH  012%=      5-min Rain = 0
KSM2 020128Z 17005KT 35/01 A2988 RMK A01 T03520013  RH  012%=      5-min Rain = 0
KSM2 020129Z 16005KT 35/02 A2988 RMK A01 T03520016  RH  012%=      5-min Rain = 0
KSM2 020130Z 16006KT 35/01 A2988 RMK A01 T03520010  RH  012%=      5-min Rain = 0
KSM2 020131Z 16005KT 35/01 A2988 RMK A01 T03520012  RH  012%=      5-min Rain = 0
KSM2 020132Z 16005KT 35/01 A2988 RMK A01 T03520008  RH  011%=      5-min Rain = 0
KSM2 020133Z 16005KT 35/01 A2988 RMK A01 T03520011  RH  012%=      5-min Rain = 0
KSM2 020134Z 16005KT 35/01 A2988 RMK A01 T03510014  RH  012%=      5-min Rain = 0
KSM2 020135Z 16005KT 35/01 A2988 RMK A01 T03500013  RH  012%=      5-min Rain = 0
KSM2 020136Z 16005KT 35/02 A2988 RMK A01 T03500015  RH  012%=      5-min Rain = 0
KSM2 020137Z 16005KT 35/01 A2988 RMK A01 T03480013  RH  012%=      5-min Rain = 0
KSM2 020138Z 16005KT 35/02 A2988 RMK A01 T03480015  RH  012%=      5-min Rain = 0
KSM2 020139Z 17005KT 35/02 A2988 RMK A01 T03480017  RH  012%=      5-min Rain = 0
KSM2 020140Z 16005KT 35/02 A2988 RMK A01 T03460015  RH  012%=      5-min Rain = 0
KSM2 020141Z 17005KT 35/02 A2988 RMK A01 T03460016  RH  012%=      5-min Rain = 0
KSM2 020142Z 17005KT 35/01 A2988 RMK A01 T03460014  RH  012%=      5-min Rain = 0
KSM2 020143Z 17004KT 35/02 A2988 RMK A01 T03460016  RH  012%=      5-min Rain = 0
KSM2 020144Z 17005KT 35/02 A2988 RMK A01 T03450016  RH  013%=      5-min Rain = 0
KSM2 020145Z 17006KT 35/01 A2988 RMK A01 T03450014  RH  012%=      5-min Rain = 0
KSM2 020146Z 17005KT 35/02 A2988 RMK A01 T03450017  RH  013%=      5-min Rain = 0
KSM2 020147Z 18004KT 34/02 A2989 RMK A01 T03440018  RH  013%=      5-min Rain = 0
KSM2 020148Z 18005KT 34/02 A2989 RMK A01 T03420017  RH  013%=      5-min Rain = 0
KSM2 020149Z 18005KT 34/02 A2989 RMK A01 T03420018  RH  013%=      5-min Rain = 0
KSM2 020150Z 18005KT 34/02 A2989 RMK A01 T03410018  RH  013%=      5-min Rain = 0
KSM2 020151Z 18005KT 34/02 A2989 RMK A01 T03400018  RH  013%=      5-min Rain = 0
KSM2 020152Z 19005KT 34/02 A2989 RMK A01 T03390019  RH  013%=      5-min Rain = 0
KSM2 020153Z 19005KT 34/02 A2989 RMK A01 T03380020  RH  013%=      5-min Rain = 0
KSM2 020154Z 18005KT 34/02 A2989 RMK A01 T03370019  RH  013%=      5-min Rain = 0
KSM2 020155Z 18006KT 34/02 A2989 RMK A01 T03370017  RH  013%=      5-min Rain = 0
KSM2 020156Z 18006KT 34/02 A2989 RMK A01 T03370019  RH  013%=      5-min Rain = 0
KSM2 020157Z 19005KT 34/02 A2989 RMK A01 T03370020  RH  014%=      5-min Rain = 0
KSM2 020158Z 19005KT 34/02 A2989 RMK A01 T03350024  RH  014%=      5-min Rain = 0
KSM2 020159Z 18005KT 33/02 A2989 RMK A01 T03340024  RH  014%=      5-min Rain = 0
KSM2 020200Z 18005KT 33/02 A2989 RMK A01 T03320022  RH  014%=      5-min Rain = 0
KSM2 020201Z 17005KT 33/02 A2989 RMK A01 T03320022  RH  014%=      5-min Rain = 0
KSM2 020202Z 18005KT 33/02 A2989 RMK A01 T03320023  RH  014%=      5-min Rain = 0
KSM2 020203Z 17005KT 33/02 A2989 RMK A01 T03310022  RH  014%=      5-min Rain = 0
KSM2 020204Z 18006KT 33/02 A2989 RMK A01 T03320021  RH  014%=      5-min Rain = 0
KSM2 020205Z 17005KT 33/02 A2989 RMK A01 T03330022  RH  014%=      5-min Rain = 0
KSM2 020206Z 18005KT 33/02 A2989 RMK A01 T03330021  RH  014%=      5-min Rain = 0
KSM2 020207Z 18006KT 33/02 A2989 RMK A01 T03340023  RH  014%=      5-min Rain = 0
KSM2 020208Z 17006KT 33/02 A2989 RMK A01 T03330022  RH  014%=      5-min Rain = 0
KSM2 020209Z 16006KT 33/02 A299 RMK A01 T03330021  RH  014%=      5-min Rain = 0
KSM2 020210Z 15009KT 33/02 A299 RMK A01 T03330019  RH  014%=      5-min Rain = 0
KSM2 020211Z 14011KT 33/02 A299 RMK A01 T03340023  RH  014%=      5-min Rain = 0
KSM2 020212Z 15011KT 33/07 A299 RMK A01 T03330072  RH  020%=      5-min Rain = 0
KSM2 020213Z 15011KT 33/08 A2991 RMK A01 T03280084  RH  022%=      5-min Rain = 0
KSM2 020214Z 16013KT 32/09 A2991 RMK A01 T03240094  RH  024%=      5-min Rain = 0
KSM2 020215Z 15015KT 32/11 A2991 RMK A01 T03220110  RH  027%=      5-min Rain = 0
KSM2 020216Z 16013KT 32/12 A2991 RMK A01 T03200118  RH  029%=      5-min Rain = 0
KSM2 020217Z 15010G15KT 32/12 A2991 RMK A01 T03200121  RH  030%=      5-min Rain = 0
KSM2 020218Z 15016G21KT 32/13 A2991 RMK A01 T03190125  RH  031%=      5-min Rain = 0
KSM2 020219Z 16015KT 32/13 A2991 RMK A01 T03180128  RH  031%=      5-min Rain = 0
KSM2 020220Z 16013KT 32/13 A2991 RMK A01 T03170129  RH  032%=      5-min Rain = 0
KSM2 020221Z 16014KT 32/13 A2991 RMK A01 T03160130  RH  032%=      5-min Rain = 0
KSM2 020222Z 16015KT 32/13 A2991 RMK A01 T03160132  RH  033%=      5-min Rain = 0
KSM2 020223Z 16011KT 32/13 A2991 RMK A01 T03160132  RH  033%=      5-min Rain = 0
KSM2 020224Z 15010G15KT 32/13 A2991 RMK A01 T03160132  RH  033%=      5-min Rain = 0
KSM2 020225Z 16011G16KT 32/13 A2991 RMK A01 T03150132  RH  033%=      5-min Rain = 0
KSM2 020226Z 17012G18KT 32/13 A2991 RMK A01 T03150132  RH  033%=      5-min Rain = 0
KSM2 020227Z 16016G22KT 32/13 A2991 RMK A01 T03150132  RH  033%=      5-min Rain = 0
KSM2 020228Z 16015KT 31/13 A2991 RMK A01 T03140133  RH  033%=      5-min Rain = 0
KSM2 020229Z 15014G19KT 32/13 A2992 RMK A01 T03150133  RH  033%=      5-min Rain = 0
KSM2 020230Z 16012KT 31/13 A2992 RMK A01 T03140134  RH  033%=      5-min Rain = 0
KSM2 020231Z 15013G18KT 31/13 A2992 RMK A01 T03140134  RH  033%=      5-min Rain = 0
KSM2 020232Z 16015KT 31/13 A2992 RMK A01 T03130134  RH  033%=      5-min Rain = 0
KSM2 020233Z 15015KT 31/13 A2992 RMK A01 T03130134  RH  034%=      5-min Rain = 0
KSM2 020234Z 16013KT 31/13 A2992 RMK A01 T03120134  RH  034%=      5-min Rain = 0
KSM2 020235Z 16014KT 31/13 A2992 RMK A01 T03110134  RH  034%=      5-min Rain = 0
KSM2 020236Z 15014KT 31/14 A2992 RMK A01 T03110135  RH  034%=      5-min Rain = 0
KSM2 020237Z 15012KT 31/14 A2992 RMK A01 T03110135  RH  034%=      5-min Rain = 0
KSM2 020238Z 16010KT 31/14 A2992 RMK A01 T03100135  RH  034%=      5-min Rain = 0
KSM2 020239Z 16013KT 31/13 A2992 RMK A01 T03100134  RH  034%=      5-min Rain = 0
KSM2 020240Z 16011KT 31/14 A2992 RMK A01 T03100135  RH  034%=      5-min Rain = 0
KSM2 020241Z 16012KT 31/14 A2992 RMK A01 T03090135  RH  035%=      5-min Rain = 0
KSM2 020242Z 16012G17KT 31/14 A2992 RMK A01 T03090135  RH  035%=      5-min Rain = 0
KSM2 020243Z 16012G18KT 31/14 A2992 RMK A01 T03090136  RH  035%=      5-min Rain = 0
KSM2 020244Z 17012KT 31/14 A2992 RMK A01 T03090136  RH  035%=      5-min Rain = 0
KSM2 020245Z 16013G18KT 31/14 A2992 RMK A01 T03090136  RH  035%=      5-min Rain = 0
KSM2 020246Z 16012KT 31/14 A2992 RMK A01 T03090136  RH  035%=      5-min Rain = 0
KSM2 020247Z 16011KT 31/14 A2993 RMK A01 T03080135  RH  035%=      5-min Rain = 0
KSM2 020248Z 17012KT 31/14 A2993 RMK A01 T03080135  RH  035%=      5-min Rain = 0
KSM2 020249Z 17011KT 31/14 A2993 RMK A01 T03070135  RH  035%=      5-min Rain = 0
KSM2 020250Z 16012KT 31/14 A2993 RMK A01 T03070135  RH  035%=      5-min Rain = 0
KSM2 020251Z 16012KT 31/14 A2993 RMK A01 T03070135  RH  035%=      5-min Rain = 0
KSM2 020252Z 16009KT 31/13 A2993 RMK A01 T03070134  RH  035%=      5-min Rain = 0
KSM2 020253Z 16010KT 31/13 A2993 RMK A01 T03070134  RH  035%=      5-min Rain = 0
KSM2 020254Z 16010G15KT 31/13 A2993 RMK A01 T03070134  RH  035%=      5-min Rain = 0
KSM2 020255Z 16011KT 31/13 A2993 RMK A01 T03070134  RH  035%=      5-min Rain = 0
KSM2 020256Z 17014G20KT 31/13 A2993 RMK A01 T03070134  RH  035%=      5-min Rain = 0
KSM2 020257Z 16012G18KT 31/13 A2993 RMK A01 T03060134  RH  035%=      5-min Rain = 0
KSM2 020258Z 16014KT 31/13 A2993 RMK A01 T03060134  RH  035%=      5-min Rain = 0
KSM2 020259Z 16013KT 31/13 A2993 RMK A01 T03060134  RH  035%=      5-min Rain = 0
KSM2 020300Z 16013KT 31/13 A2994 RMK A01 T03060134  RH  035%=      5-min Rain = 0
KSM2 020301Z 16011G17KT 31/13 A2994 RMK A01 T03060134  RH  035%=      5-min Rain = 0
KSM2 020302Z 16013G18KT 31/13 A2994 RMK A01 T03060134  RH  035%=      5-min Rain = 0
KSM2 020303Z 16014G20KT 31/13 A2994 RMK A01 T03050134  RH  035%=      5-min Rain = 0
KSM2 020304Z 15018G25KT 31/13 A2994 RMK A01 T03050133  RH  035%=      5-min Rain = 0
KSM2 020305Z 16019G24KT 31/13 A2994 RMK A01 T03060133  RH  035%=      5-min Rain = 0
KSM2 020306Z 16017G24KT 31/13 A2994 RMK A01 T03060134  RH  035%=      5-min Rain = 0
KSM2 020307Z 16020G25KT 31/13 A2994 RMK A01 T03050134  RH  035%=      5-min Rain = 0
KSM2 020308Z 16018G25KT 30/14 A2994 RMK A01 T03040135  RH  036%=      5-min Rain = 0
KSM2 020309Z 15016G24KT 30/14 A2994 RMK A01 T03030135  RH  036%=      5-min Rain = 0
KSM2 020310Z 15016KT 30/14 A2994 RMK A01 T03020135  RH  036%=      5-min Rain = 0
KSM2 020311Z 14017G25KT 30/14 A2994 RMK A01 T03000135  RH  036%=      5-min Rain = 0
KSM2 020312Z 15020G26KT 30/14 A2994 RMK A01 T02990135  RH  037%=      5-min Rain = 0
KSM2 020313Z 14020G25KT 30/14 A2994 RMK A01 T02970135  RH  037%=      5-min Rain = 0
KSM2 020314Z 15018G23KT 30/14 A2994 RMK A01 T02960135  RH  037%=      5-min Rain = 0
KSM2 020315Z 14016G22KT 30/14 A2994 RMK A01 T02950135  RH  037%=      5-min Rain = 0
KSM2 020316Z 14016G24KT 29/14 A2994 RMK A01 T02940135  RH  038%=      5-min Rain = 0
KSM2 020317Z 15018KT 29/14 A2994 RMK A01 T02930135  RH  038%=      5-min Rain = 0
KSM2 020318Z 15018G25KT 29/14 A2994 RMK A01 T02920135  RH  038%=      5-min Rain = 0
KSM2 020319Z 15018KT 29/14 A2995 RMK A01 T02920136  RH  038%=      5-min Rain = 0
KSM2 020320Z 15018G24KT 29/14 A2994 RMK A01 T02920136  RH  038%=      5-min Rain = 0
KSM2 020321Z 15016KT 29/14 A2995 RMK A01 T02910136  RH  039%=      5-min Rain = 0
KSM2 020322Z 15017KT 29/14 A2995 RMK A01 T02910136  RH  039%=      5-min Rain = 0
KSM2 020323Z 14018KT 29/14 A2995 RMK A01 T02900136  RH  039%=      5-min Rain = 0
KSM2 020324Z 14018KT 29/14 A2995 RMK A01 T02900137  RH  039%=      5-min Rain = 0
KSM2 020325Z 14016G21KT 29/14 A2995 RMK A01 T02890137  RH  039%=      5-min Rain = 0
KSM2 020326Z 15017KT 29/14 A2995 RMK A01 T02890138  RH  039%=      5-min Rain = 0
KSM2 020327Z 14016G21KT 29/14 A2995 RMK A01 T02890138  RH  040%=      5-min Rain = 0
KSM2 020328Z 14019G25KT 29/14 A2995 RMK A01 T02880138  RH  040%=      5-min Rain = 0
KSM2 020329Z 15018G25KT 29/14 A2995 RMK A01 T02880139  RH  040%=      5-min Rain = 0
KSM2 020330Z 16018G23KT 29/14 A2995 RMK A01 T02880139  RH  040%=      5-min Rain = 0
KSM2 020331Z 15016G23KT 29/14 A2996 RMK A01 T02880140  RH  040%=      5-min Rain = 0
KSM2 020332Z 15015G22KT 29/14 A2996 RMK A01 T02880140  RH  040%=      5-min Rain = 0
KSM2 020333Z 16016G22KT 29/14 A2995 RMK A01 T02870140  RH  041%=      5-min Rain = 0
KSM2 020334Z 16015G21KT 29/14 A2995 RMK A01 T02860141  RH  041%=      5-min Rain = 0
KSM2 020335Z 16019G25KT 29/14 A2995 RMK A01 T02860141  RH  041%=      5-min Rain = 0
KSM2 020336Z 15016KT 29/14 A2996 RMK A01 T02860141  RH  041%=      5-min Rain = 0
KSM2 020337Z 15015KT 29/14 A2996 RMK A01 T02850141  RH  041%=      5-min Rain = 0
KSM2 020338Z 14015KT 29/14 A2996 RMK A01 T02850142  RH  042%=      5-min Rain = 0
KSM2 020339Z 15017KT 28/14 A2996 RMK A01 T02840142  RH  042%=      5-min Rain = 0
KSM2 020340Z 15014KT 28/14 A2996 RMK A01 T02830143  RH  042%=      5-min Rain = 0
KSM2 020341Z 15011G16KT 28/14 A2996 RMK A01 T02830143  RH  042%=      5-min Rain = 0
KSM2 020342Z 15014KT 28/14 A2996 RMK A01 T02830143  RH  043%=      5-min Rain = 0
KSM2 020343Z 14013G21KT 28/14 A2996 RMK A01 T02820143  RH  043%=      5-min Rain = 0
KSM2 020344Z 15017G22KT 28/14 A2996 RMK A01 T02820143  RH  043%=      5-min Rain = 0
KSM2 020345Z 15014G20KT 28/14 A2997 RMK A01 T02820144  RH  043%=      5-min Rain = 0
KSM2 020346Z 14014KT 28/14 A2997 RMK A01 T02820144  RH  043%=      5-min Rain = 0
KSM2 020347Z 15013KT 28/14 A2997 RMK A01 T02810144  RH  043%=      5-min Rain = 0
KSM2 020348Z 14013KT 28/14 A2997 RMK A01 T02800144  RH  043%=      5-min Rain = 0
KSM2 020349Z 15014G19KT 28/14 A2997 RMK A01 T02800144  RH  043%=      5-min Rain = 0
KSM2 020350Z 15016G21KT 28/14 A2997 RMK A01 T02790144  RH  044%=      5-min Rain = 0
KSM2 020351Z 15015G20KT 28/15 A2997 RMK A01 T02790145  RH  044%=      5-min Rain = 0
KSM2 020352Z 15011KT 28/15 A2997 RMK A01 T02780145  RH  044%=      5-min Rain = 0
KSM2 020353Z 15019G24KT 28/15 A2997 RMK A01 T02780145  RH  044%=      5-min Rain = 0
KSM2 020354Z 15015KT 28/15 A2997 RMK A01 T02780145  RH  044%=      5-min Rain = 0
KSM2 020355Z 15015G20KT 28/15 A2997 RMK A01 T02780145  RH  044%=      5-min Rain = 0
KSM2 020356Z 15015G20KT 28/15 A2997 RMK A01 T02780145  RH  044%=      5-min Rain = 0
KSM2 020357Z 15017G24KT 28/15 A2997 RMK A01 T02770145  RH  044%=      5-min Rain = 0
KSM2 020358Z 15020G25KT 28/14 A2997 RMK A01 T02770144  RH  044%=      5-min Rain = 0
KSM2 020359Z 16022KT 28/14 A2998 RMK A01 T02770144  RH  044%=      5-min Rain = 0
KSM2 020400Z 16017G22KT 28/14 A2998 RMK A01 T02770144  RH  044%=      5-min Rain = 0
KSM2 020401Z 16018G23KT 28/14 A2998 RMK A01 T02760144  RH  044%=      5-min Rain = 0
KSM2 020402Z 16022KT 28/14 A2997 RMK A01 T02760144  RH  044%=      5-min Rain = 0
KSM2 020403Z 15023G29KT 28/15 A2997 RMK A01 T02760146  RH  045%=      5-min Rain = 0
KSM2 020404Z 15020KT 28/15 A2998 RMK A01 T02750147  RH  046%=      5-min Rain = 0
KSM2 020405Z 15018G23KT 27/15 A2998 RMK A01 T02730147  RH  046%=      5-min Rain = 0
KSM2 020406Z 15018G24KT 27/15 A2998 RMK A01 T02730148  RH  046%=      5-min Rain = 0
KSM2 020407Z 15016G23KT 27/15 A2998 RMK A01 T02720148  RH  047%=      5-min Rain = 0
KSM2 020408Z 15019G24KT 27/15 A2998 RMK A01 T02710148  RH  047%=      5-min Rain = 0
KSM2 020409Z 16017KT 27/15 A2998 RMK A01 T02710148  RH  047%=      5-min Rain = 0
KSM2 020410Z 15021G27KT 27/15 A2998 RMK A01 T02710148  RH  047%=      5-min Rain = 0
KSM2 020411Z 15019KT 27/15 A2998 RMK A01 T02710147  RH  047%=      5-min Rain = 0
KSM2 020412Z 15019G24KT 27/15 A2998 RMK A01 T02710147  RH  047%=      5-min Rain = 0
KSM2 020413Z 16019G25KT 27/15 A2998 RMK A01 T02710148  RH  047%=      5-min Rain = 0
KSM2 020414Z 16020G25KT 27/15 A2998 RMK A01 T02700147  RH  047%=      5-min Rain = 0
KSM2 020415Z 16014KT 27/15 A2998 RMK A01 T02700148  RH  047%=      5-min Rain = 0
KSM2 020416Z 16018G25KT 27/15 A2998 RMK A01 T02700148  RH  047%=      5-min Rain = 0
KSM2 020417Z 16016G22KT 27/15 A2998 RMK A01 T02700148  RH  047%=      5-min Rain = 0
KSM2 020418Z 16019KT 27/15 A2998 RMK A01 T02700148  RH  047%=      5-min Rain = 0
KSM2 020419Z 16015G20KT 27/15 A2998 RMK A01 T02700149  RH  047%=      5-min Rain = 0
KSM2 020420Z 15017G23KT 27/15 A2998 RMK A01 T02690149  RH  048%=      5-min Rain = 0
KSM2 020421Z 16014G22KT 27/15 A2998 RMK A01 T02690149  RH  048%=      5-min Rain = 0
KSM2 020422Z 15017KT 27/15 A2998 RMK A01 T02690149  RH  048%=      5-min Rain = 0
KSM2 020423Z 15017G22KT 27/15 A2998 RMK A01 T02690150  RH  048%=      5-min Rain = 0
KSM2 020424Z 15017G23KT 27/15 A2998 RMK A01 T02680150  RH  048%=      5-min Rain = 0
KSM2 020425Z 15017G22KT 27/15 A2998 RMK A01 T02680150  RH  048%=      5-min Rain = 0
KSM2 020426Z 16017G22KT 27/15 A2998 RMK A01 T02670150  RH  049%=      5-min Rain = 0
KSM2 020427Z 16018G24KT 27/15 A2998 RMK A01 T02670150  RH  049%=      5-min Rain = 0
KSM2 020428Z 16019KT 27/15 A2998 RMK A01 T02670151  RH  049%=      5-min Rain = 0
KSM2 020429Z 16014KT 27/15 A2998 RMK A01 T02670150  RH  049%=      5-min Rain = 0
KSM2 020430Z 15016KT 27/15 A2998 RMK A01 T02670150  RH  049%=      5-min Rain = 0
KSM2 020431Z 16014G19KT 27/15 A2998 RMK A01 T02670150  RH  049%=      5-min Rain = 0
KSM2 020432Z 16015G20KT 27/15 A2998 RMK A01 T02660150  RH  049%=      5-min Rain = 0
KSM2 020433Z 17017G22KT 27/15 A2998 RMK A01 T02670151  RH  049%=      5-min Rain = 0
KSM2 020434Z 17019G30KT 27/15 A2999 RMK A01 T02660150  RH  049%=      5-min Rain = 0
KSM2 020435Z 17020G27KT 27/15 A2999 RMK A01 T02660150  RH  049%=      5-min Rain = 0
KSM2 020436Z 17020G27KT 27/15 A2999 RMK A01 T02650150  RH  049%=      5-min Rain = 0
KSM2 020437Z 16019G26KT 27/15 A2999 RMK A01 T02650151  RH  050%=      5-min Rain = 0
KSM2 020438Z 16017G27KT 26/15 A2999 RMK A01 T02640151  RH  050%=      5-min Rain = 0
KSM2 020439Z 16017G25KT 26/15 A2999 RMK A01 T02630152  RH  050%=      5-min Rain = 0
KSM2 020440Z 17019G27KT 26/15 A2999 RMK A01 T02630152  RH  051%=      5-min Rain = 0
KSM2 020441Z 17019G26KT 26/15 A2999 RMK A01 T02620153  RH  051%=      5-min Rain = 0
KSM2 020442Z 17015G21KT 26/15 A2999 RMK A01 T02620153  RH  051%=      5-min Rain = 0
KSM2 020443Z 17015G21KT 26/15 A2999 RMK A01 T02620153  RH  051%=      5-min Rain = 0
KSM2 020444Z 18016KT 26/15 A2999 RMK A01 T02610153  RH  051%=      5-min Rain = 0
KSM2 020445Z 17020G26KT 26/15 A2999 RMK A01 T02610153  RH  051%=      5-min Rain = 0
KSM2 020446Z 17017G22KT 26/15 A2999 RMK A01 T02610154  RH  052%=      5-min Rain = 0
KSM2 020447Z 17017G22KT 26/15 A2999 RMK A01 T02610154  RH  052%=      5-min Rain = 0
KSM2 020448Z 18017G23KT 26/16 A2999 RMK A01 T02610155  RH  052%=      5-min Rain = 0
KSM2 020449Z 18015KT 26/16 A2999 RMK A01 T02610156  RH  052%=      5-min Rain = 0
KSM2 020450Z 18014KT 26/16 A2999 RMK A01 T02600157  RH  053%=      5-min Rain = 0
KSM2 020451Z 19016KT 26/16 A2999 RMK A01 T02590159  RH  054%=      5-min Rain = 0
KSM2 020452Z 18015G20KT 26/16 A2999 RMK A01 T02580161  RH  055%=      5-min Rain = 0
KSM2 020453Z 17014G19KT 26/16 A2999 RMK A01 T02570161  RH  055%=      5-min Rain = 0
KSM2 020454Z 18017KT 26/16 A2999 RMK A01 T02560162  RH  056%=      5-min Rain = 0
KSM2 020455Z 18015KT 26/16 A2999 RMK A01 T02560162  RH  056%=      5-min Rain = 0
KSM2 020456Z 17015G21KT 26/16 A2999 RMK A01 T02550162  RH  057%=      5-min Rain = 0
KSM2 020457Z 18019KT 25/16 A2999 RMK A01 T02540162  RH  057%=      5-min Rain = 0
KSM2 020458Z 17015G22KT 25/16 A2999 RMK A01 T02540162  RH  057%=      5-min Rain = 0
KSM2 020459Z 17015KT 25/16 A2999 RMK A01 T02530163  RH  057%=      5-min Rain = 0

Page generated in 0.0845 seconds.